
<gpx xmlns="http://www.topografix.com/GPX/1/1" xmlns:gpxx="http://www.garmin.com/xmlschemas/GpxExtensions/v3" xmlns:wptx1="http://www.garmin.com/xmlschemas/WaypointExtension/v1" xmlns:xsi="http://www.w3.org/2001/XMLSchema-instance" version="1.1" creator="Adze - https://getadze.com/" xsi:schemaLocation="http://www.topografix.com/GPX/1/1 http://www.topografix.com/GPX/1/1/gpx.xsd http://www.garmin.com/xmlschemas/GpxExtensions/v3 http://www8.garmin.com/xmlschemas/GpxExtensionsv3.xsd http://www.garmin.com/xmlschemas/WaypointExtension/v1 http://www8.garmin.com/xmlschemas/WaypointExtensionv1.xsd">
    <metadata>
        <name>Untitled Document</name>
        <link href="http://www.garmin.com"></link>
        <time>2018-03-06T04:03:01Z</time>
    </metadata>
    <wpt lon="99.148755" lat="14.107432">
        <ele>52.000000</ele>
        <name>Suan Sri Resort</name>
        <cmt>28-JUL-06 8:51:12</cmt>
        <desc>28-JUL-06 8:51:12</desc>
        <sym>Block, Blue</sym>
        <type>user</type>
        <extensions>
            <gpxx:WaypointExtension>
                <gpxx:DisplayMode>SymbolAndName</gpxx:DisplayMode>
            </gpxx:WaypointExtension>
            <wptx1:WaypointExtension>
                <wptx1:DisplayMode>SymbolAndName</wptx1:DisplayMode>
            </wptx1:WaypointExtension>
        </extensions>
    </wpt>
    <trk>
        <name>July 2006 - Saturday</name>
        <extensions>
            <gpxx:TrackExtension>
                <gpxx:DisplayColor>DarkGray</gpxx:DisplayColor>
            </gpxx:TrackExtension>
        </extensions>
        <trkseg>
            <trkpt lon="99.149705" lat="14.108909">
                <ele>62.622925</ele>
                <time>2006-07-29T06:29:29Z</time>
            </trkpt>
            <trkpt lon="99.149725" lat="14.108940">
                <ele>62.622925</ele>
                <time>2006-07-29T06:29:32Z</time>
            </trkpt>
            <trkpt lon="99.150118" lat="14.108900">
                <ele>61.181030</ele>
                <time>2006-07-29T06:29:45Z</time>
            </trkpt>
            <trkpt lon="99.150237" lat="14.108822">
                <ele>60.219727</ele>
                <time>2006-07-29T06:29:48Z</time>
            </trkpt>
            <trkpt lon="99.150342" lat="14.108730">
                <ele>59.258423</ele>
                <time>2006-07-29T06:29:50Z</time>
            </trkpt>
            <trkpt lon="99.150608" lat="14.108665">
                <ele>57.335815</ele>
                <time>2006-07-29T06:29:56Z</time>
            </trkpt>
            <trkpt lon="99.151305" lat="14.109256">
                <ele>55.413086</ele>
                <time>2006-07-29T06:30:13Z</time>
            </trkpt>
            <trkpt lon="99.152129" lat="14.110025">
                <ele>54.451782</ele>
                <time>2006-07-29T06:30:34Z</time>
            </trkpt>
            <trkpt lon="99.153005" lat="14.110948">
                <ele>52.048584</ele>
                <time>2006-07-29T06:30:55Z</time>
            </trkpt>
            <trkpt lon="99.153502" lat="14.111428">
                <ele>52.529175</ele>
                <time>2006-07-29T06:31:08Z</time>
            </trkpt>
            <trkpt lon="99.153483" lat="14.111585">
                <ele>53.009766</ele>
                <time>2006-07-29T06:31:18Z</time>
            </trkpt>
            <trkpt lon="99.153467" lat="14.111606">
                <ele>55.413086</ele>
                <time>2006-07-29T06:31:31Z</time>
            </trkpt>
            <trkpt lon="99.153390" lat="14.111662">
                <ele>51.087158</ele>
                <time>2006-07-29T06:32:17Z</time>
            </trkpt>
            <trkpt lon="99.152700" lat="14.112403">
                <ele>50.125977</ele>
                <time>2006-07-29T06:32:34Z</time>
            </trkpt>
            <trkpt lon="99.151666" lat="14.113141">
                <ele>50.125977</ele>
                <time>2006-07-29T06:32:54Z</time>
            </trkpt>
            <trkpt lon="99.150684" lat="14.113400">
                <ele>50.606567</ele>
                <time>2006-07-29T06:33:10Z</time>
            </trkpt>
            <trkpt lon="99.149583" lat="14.113715">
                <ele>52.048584</ele>
                <time>2006-07-29T06:33:33Z</time>
            </trkpt>
            <trkpt lon="99.148862" lat="14.113944">
                <ele>52.048584</ele>
                <time>2006-07-29T06:33:47Z</time>
            </trkpt>
            <trkpt lon="99.148446" lat="14.114221">
                <ele>50.606567</ele>
                <time>2006-07-29T06:33:56Z</time>
            </trkpt>
            <trkpt lon="99.147519" lat="14.115237">
                <ele>50.125977</ele>
                <time>2006-07-29T06:34:19Z</time>
            </trkpt>
            <trkpt lon="99.147222" lat="14.115528">
                <ele>51.087158</ele>
                <time>2006-07-29T06:34:29Z</time>
            </trkpt>
            <trkpt lon="99.147081" lat="14.115435">
                <ele>50.606567</ele>
                <time>2006-07-29T06:34:33Z</time>
            </trkpt>
            <trkpt lon="99.146662" lat="14.114336">
                <ele>49.645264</ele>
                <time>2006-07-29T06:34:50Z</time>
            </trkpt>
            <trkpt lon="99.146359" lat="14.113049">
                <ele>49.164551</ele>
                <time>2006-07-29T06:35:07Z</time>
            </trkpt>
            <trkpt lon="99.146077" lat="14.111635">
                <ele>50.125977</ele>
                <time>2006-07-29T06:35:28Z</time>
            </trkpt>
            <trkpt lon="99.145942" lat="14.110841">
                <ele>51.567871</ele>
                <time>2006-07-29T06:35:45Z</time>
            </trkpt>
            <trkpt lon="99.145963" lat="14.110825">
                <ele>51.567871</ele>
                <time>2006-07-29T06:35:55Z</time>
            </trkpt>
            <trkpt lon="99.146003" lat="14.110820">
                <ele>52.048584</ele>
                <time>2006-07-29T06:36:15Z</time>
            </trkpt>
            <trkpt lon="99.146023" lat="14.110829">
                <ele>54.451782</ele>
                <time>2006-07-29T06:36:37Z</time>
            </trkpt>
            <trkpt lon="99.146099" lat="14.110850">
                <ele>52.529175</ele>
                <time>2006-07-29T06:36:51Z</time>
            </trkpt>
            <trkpt lon="99.146069" lat="14.110934">
                <ele>53.009766</ele>
                <time>2006-07-29T06:37:14Z</time>
            </trkpt>
            <trkpt lon="99.146187" lat="14.110984">
                <ele>49.645264</ele>
                <time>2006-07-29T06:37:30Z</time>
            </trkpt>
            <trkpt lon="99.146630" lat="14.111156">
                <ele>50.606567</ele>
                <time>2006-07-29T06:37:48Z</time>
            </trkpt>
            <trkpt lon="99.147001" lat="14.111132">
                <ele>46.280640</ele>
                <time>2006-07-29T06:38:02Z</time>
            </trkpt>
            <trkpt lon="99.147455" lat="14.111316">
                <ele>49.164551</ele>
                <time>2006-07-29T06:38:19Z</time>
            </trkpt>
            <trkpt lon="99.147585" lat="14.111418">
                <ele>46.761230</ele>
                <time>2006-07-29T06:38:32Z</time>
            </trkpt>
            <trkpt lon="99.147720" lat="14.111572">
                <ele>46.280640</ele>
                <time>2006-07-29T06:38:52Z</time>
            </trkpt>
            <trkpt lon="99.147977" lat="14.111727">
                <ele>45.799927</ele>
                <time>2006-07-29T06:39:03Z</time>
            </trkpt>
            <trkpt lon="99.148120" lat="14.111616">
                <ele>46.280640</ele>
                <time>2006-07-29T06:39:12Z</time>
            </trkpt>
            <trkpt lon="99.148114" lat="14.111606">
                <ele>46.280640</ele>
                <time>2006-07-29T06:39:13Z</time>
            </trkpt>
            <trkpt lon="99.148256" lat="14.111471">
                <ele>49.164551</ele>
                <time>2006-07-29T06:39:31Z</time>
            </trkpt>
            <trkpt lon="99.148233" lat="14.111471">
                <ele>47.241821</ele>
                <time>2006-07-29T06:39:55Z</time>
            </trkpt>
            <trkpt lon="99.148249" lat="14.111319">
                <ele>48.683960</ele>
                <time>2006-07-29T06:40:06Z</time>
            </trkpt>
            <trkpt lon="99.148241" lat="14.111239">
                <ele>48.683960</ele>
                <time>2006-07-29T06:40:09Z</time>
            </trkpt>
            <trkpt lon="99.148279" lat="14.111162">
                <ele>49.164551</ele>
                <time>2006-07-29T06:40:14Z</time>
            </trkpt>
            <trkpt lon="99.148298" lat="14.111140">
                <ele>50.125977</ele>
                <time>2006-07-29T06:40:16Z</time>
            </trkpt>
            <trkpt lon="99.148335" lat="14.110746">
                <ele>51.567871</ele>
                <time>2006-07-29T06:40:39Z</time>
            </trkpt>
            <trkpt lon="99.148403" lat="14.110160">
                <ele>50.606567</ele>
                <time>2006-07-29T06:41:06Z</time>
            </trkpt>
            <trkpt lon="99.148251" lat="14.109756">
                <ele>39.551270</ele>
                <time>2006-07-29T06:41:25Z</time>
            </trkpt>
            <trkpt lon="99.148159" lat="14.109420">
                <ele>35.225464</ele>
                <time>2006-07-29T06:41:45Z</time>
            </trkpt>
            <trkpt lon="99.148167" lat="14.109377">
                <ele>35.225464</ele>
                <time>2006-07-29T06:41:49Z</time>
            </trkpt>
            <trkpt lon="99.148173" lat="14.109327">
                <ele>36.667480</ele>
                <time>2006-07-29T06:42:01Z</time>
            </trkpt>
            <trkpt lon="99.148186" lat="14.109244">
                <ele>37.628662</ele>
                <time>2006-07-29T06:42:21Z</time>
            </trkpt>
            <trkpt lon="99.148151" lat="14.109146">
                <ele>38.109375</ele>
                <time>2006-07-29T06:42:36Z</time>
            </trkpt>
            <trkpt lon="99.148042" lat="14.108956">
                <ele>39.070679</ele>
                <time>2006-07-29T06:42:53Z</time>
            </trkpt>
            <trkpt lon="99.147975" lat="14.108850">
                <ele>38.590088</ele>
                <time>2006-07-29T06:43:12Z</time>
            </trkpt>
            <trkpt lon="99.147943" lat="14.108788">
                <ele>40.993408</ele>
                <time>2006-07-29T06:43:52Z</time>
            </trkpt>
            <trkpt lon="99.147900" lat="14.108769">
                <ele>40.032104</ele>
                <time>2006-07-29T06:43:57Z</time>
            </trkpt>
            <trkpt lon="99.147873" lat="14.108810">
                <ele>45.319214</ele>
                <time>2006-07-29T06:44:14Z</time>
            </trkpt>
            <trkpt lon="99.147865" lat="14.108842">
                <ele>46.761230</ele>
                <time>2006-07-29T06:44:17Z</time>
            </trkpt>
            <trkpt lon="99.147740" lat="14.108955">
                <ele>44.358032</ele>
                <time>2006-07-29T06:44:27Z</time>
            </trkpt>
            <trkpt lon="99.147512" lat="14.109110">
                <ele>41.473999</ele>
                <time>2006-07-29T06:44:45Z</time>
            </trkpt>
            <trkpt lon="99.147484" lat="14.109170">
                <ele>40.032104</ele>
                <time>2006-07-29T06:44:51Z</time>
            </trkpt>
            <trkpt lon="99.147398" lat="14.109189">
                <ele>39.551270</ele>
                <time>2006-07-29T06:44:56Z</time>
            </trkpt>
            <trkpt lon="99.147280" lat="14.109348">
                <ele>36.667480</ele>
                <time>2006-07-29T06:45:08Z</time>
            </trkpt>
            <trkpt lon="99.147331" lat="14.109496">
                <ele>37.148071</ele>
                <time>2006-07-29T06:45:24Z</time>
            </trkpt>
            <trkpt lon="99.147265" lat="14.109550">
                <ele>38.109375</ele>
                <time>2006-07-29T06:50:50Z</time>
            </trkpt>
            <trkpt lon="99.147339" lat="14.109642">
                <ele>38.590088</ele>
                <time>2006-07-29T06:51:04Z</time>
            </trkpt>
            <trkpt lon="99.147311" lat="14.109924">
                <ele>41.473999</ele>
                <time>2006-07-29T06:51:20Z</time>
            </trkpt>
            <trkpt lon="99.147217" lat="14.110089">
                <ele>42.435425</ele>
                <time>2006-07-29T06:51:32Z</time>
            </trkpt>
            <trkpt lon="99.147200" lat="14.110090">
                <ele>42.435425</ele>
                <time>2006-07-29T06:51:33Z</time>
            </trkpt>
            <trkpt lon="99.146925" lat="14.110206">
                <ele>40.993408</ele>
                <time>2006-07-29T06:51:49Z</time>
            </trkpt>
            <trkpt lon="99.146874" lat="14.110236">
                <ele>40.032104</ele>
                <time>2006-07-29T06:52:06Z</time>
            </trkpt>
            <trkpt lon="99.146818" lat="14.110305">
                <ele>40.032104</ele>
                <time>2006-07-29T06:52:11Z</time>
            </trkpt>
            <trkpt lon="99.146726" lat="14.110494">
                <ele>41.473999</ele>
                <time>2006-07-29T06:52:28Z</time>
            </trkpt>
            <trkpt lon="99.146642" lat="14.110537">
                <ele>40.993408</ele>
                <time>2006-07-29T06:52:41Z</time>
            </trkpt>
            <trkpt lon="99.146557" lat="14.110605">
                <ele>40.993408</ele>
                <time>2006-07-29T06:52:52Z</time>
            </trkpt>
            <trkpt lon="99.146464" lat="14.110690">
                <ele>43.396606</ele>
                <time>2006-07-29T06:53:08Z</time>
            </trkpt>
            <trkpt lon="99.146397" lat="14.110720">
                <ele>43.396606</ele>
                <time>2006-07-29T06:53:22Z</time>
            </trkpt>
            <trkpt lon="99.146418" lat="14.110756">
                <ele>40.993408</ele>
                <time>2006-07-29T06:53:36Z</time>
            </trkpt>
            <trkpt lon="99.146409" lat="14.110791">
                <ele>41.473999</ele>
                <time>2006-07-29T06:53:42Z</time>
            </trkpt>
            <trkpt lon="99.146385" lat="14.110830">
                <ele>40.512817</ele>
                <time>2006-07-29T06:53:46Z</time>
            </trkpt>
            <trkpt lon="99.146361" lat="14.110921">
                <ele>39.551270</ele>
                <time>2006-07-29T06:54:04Z</time>
            </trkpt>
            <trkpt lon="99.146302" lat="14.110968">
                <ele>40.512817</ele>
                <time>2006-07-29T06:54:40Z</time>
            </trkpt>
            <trkpt lon="99.146295" lat="14.110979">
                <ele>43.396606</ele>
                <time>2006-07-29T06:54:46Z</time>
            </trkpt>
            <trkpt lon="99.146229" lat="14.110990">
                <ele>46.280640</ele>
                <time>2006-07-29T06:55:01Z</time>
            </trkpt>
            <trkpt lon="99.146208" lat="14.110969">
                <ele>46.280640</ele>
                <time>2006-07-29T06:55:04Z</time>
            </trkpt>
            <trkpt lon="99.146155" lat="14.110885">
                <ele>48.203369</ele>
                <time>2006-07-29T06:55:12Z</time>
            </trkpt>
            <trkpt lon="99.146111" lat="14.110865">
                <ele>48.683960</ele>
                <time>2006-07-29T06:55:17Z</time>
            </trkpt>
            <trkpt lon="99.146065" lat="14.110811">
                <ele>49.164551</ele>
                <time>2006-07-29T06:55:24Z</time>
            </trkpt>
            <trkpt lon="99.145969" lat="14.110398">
                <ele>49.645264</ele>
                <time>2006-07-29T06:55:43Z</time>
            </trkpt>
            <trkpt lon="99.145814" lat="14.109582">
                <ele>50.125977</ele>
                <time>2006-07-29T06:56:05Z</time>
            </trkpt>
            <trkpt lon="99.145561" lat="14.108751">
                <ele>50.125977</ele>
                <time>2006-07-29T06:56:26Z</time>
            </trkpt>
            <trkpt lon="99.145175" lat="14.108020">
                <ele>50.125977</ele>
                <time>2006-07-29T06:56:46Z</time>
            </trkpt>
            <trkpt lon="99.144826" lat="14.107304">
                <ele>50.606567</ele>
                <time>2006-07-29T06:57:05Z</time>
            </trkpt>
            <trkpt lon="99.144797" lat="14.107236">
                <ele>54.932373</ele>
                <time>2006-07-29T06:57:49Z</time>
            </trkpt>
            <trkpt lon="99.144736" lat="14.107009">
                <ele>53.009766</ele>
                <time>2006-07-29T06:58:11Z</time>
            </trkpt>
            <trkpt lon="99.144603" lat="14.106136">
                <ele>51.567871</ele>
                <time>2006-07-29T06:58:30Z</time>
            </trkpt>
            <trkpt lon="99.144459" lat="14.105043">
                <ele>51.087158</ele>
                <time>2006-07-29T06:58:52Z</time>
            </trkpt>
            <trkpt lon="99.144391" lat="14.104747">
                <ele>51.567871</ele>
                <time>2006-07-29T06:58:59Z</time>
            </trkpt>
            <trkpt lon="99.144449" lat="14.104006">
                <ele>49.645264</ele>
                <time>2006-07-29T06:59:16Z</time>
            </trkpt>
            <trkpt lon="99.144441" lat="14.103905">
                <ele>50.125977</ele>
                <time>2006-07-29T06:59:22Z</time>
            </trkpt>
            <trkpt lon="99.144494" lat="14.103772">
                <ele>50.606567</ele>
                <time>2006-07-29T06:59:34Z</time>
            </trkpt>
            <trkpt lon="99.144547" lat="14.103231">
                <ele>49.164551</ele>
                <time>2006-07-29T06:59:47Z</time>
            </trkpt>
            <trkpt lon="99.144787" lat="14.102296">
                <ele>47.722534</ele>
                <time>2006-07-29T07:00:04Z</time>
            </trkpt>
            <trkpt lon="99.145236" lat="14.101038">
                <ele>45.319214</ele>
                <time>2006-07-29T07:00:27Z</time>
            </trkpt>
            <trkpt lon="99.145534" lat="14.100335">
                <ele>43.396606</ele>
                <time>2006-07-29T07:00:42Z</time>
            </trkpt>
            <trkpt lon="99.145633" lat="14.100137">
                <ele>41.954712</ele>
                <time>2006-07-29T07:00:49Z</time>
            </trkpt>
            <trkpt lon="99.145533" lat="14.100030">
                <ele>42.916016</ele>
                <time>2006-07-29T07:00:55Z</time>
            </trkpt>
            <trkpt lon="99.145120" lat="14.099788">
                <ele>44.358032</ele>
                <time>2006-07-29T07:01:10Z</time>
            </trkpt>
            <trkpt lon="99.145125" lat="14.099789">
                <ele>45.799927</ele>
                <time>2006-07-29T07:01:32Z</time>
            </trkpt>
            <trkpt lon="99.145119" lat="14.099788">
                <ele>48.683960</ele>
                <time>2006-07-29T07:02:20Z</time>
            </trkpt>
            <trkpt lon="99.145135" lat="14.099809">
                <ele>48.203369</ele>
                <time>2006-07-29T07:02:32Z</time>
            </trkpt>
            <trkpt lon="99.145300" lat="14.099898">
                <ele>47.722534</ele>
                <time>2006-07-29T07:02:40Z</time>
            </trkpt>
            <trkpt lon="99.145612" lat="14.100076">
                <ele>46.280640</ele>
                <time>2006-07-29T07:02:51Z</time>
            </trkpt>
            <trkpt lon="99.145736" lat="14.099937">
                <ele>44.838623</ele>
                <time>2006-07-29T07:02:58Z</time>
            </trkpt>
            <trkpt lon="99.145946" lat="14.099111">
                <ele>42.916016</ele>
                <time>2006-07-29T07:03:16Z</time>
            </trkpt>
            <trkpt lon="99.146017" lat="14.098601">
                <ele>46.280640</ele>
                <time>2006-07-29T07:03:31Z</time>
            </trkpt>
            <trkpt lon="99.146057" lat="14.098409">
                <ele>46.761230</ele>
                <time>2006-07-29T07:03:36Z</time>
            </trkpt>
            <trkpt lon="99.146378" lat="14.097550">
                <ele>46.761230</ele>
                <time>2006-07-29T07:03:55Z</time>
            </trkpt>
            <trkpt lon="99.146875" lat="14.096354">
                <ele>45.319214</ele>
                <time>2006-07-29T07:04:15Z</time>
            </trkpt>
            <trkpt lon="99.147273" lat="14.095363">
                <ele>44.838623</ele>
                <time>2006-07-29T07:04:33Z</time>
            </trkpt>
            <trkpt lon="99.147244" lat="14.095199">
                <ele>44.838623</ele>
                <time>2006-07-29T07:04:40Z</time>
            </trkpt>
            <trkpt lon="99.146778" lat="14.094999">
                <ele>45.799927</ele>
                <time>2006-07-29T07:04:56Z</time>
            </trkpt>
            <trkpt lon="99.146503" lat="14.094740">
                <ele>46.280640</ele>
                <time>2006-07-29T07:05:10Z</time>
            </trkpt>
            <trkpt lon="99.146234" lat="14.094358">
                <ele>51.087158</ele>
                <time>2006-07-29T07:05:27Z</time>
            </trkpt>
            <trkpt lon="99.146222" lat="14.094335">
                <ele>51.087158</ele>
                <time>2006-07-29T07:05:28Z</time>
            </trkpt>
            <trkpt lon="99.146402" lat="14.094141">
                <ele>50.125977</ele>
                <time>2006-07-29T07:05:37Z</time>
            </trkpt>
            <trkpt lon="99.147052" lat="14.093680">
                <ele>48.203369</ele>
                <time>2006-07-29T07:05:58Z</time>
            </trkpt>
            <trkpt lon="99.147495" lat="14.093358">
                <ele>48.203369</ele>
                <time>2006-07-29T07:06:14Z</time>
            </trkpt>
            <trkpt lon="99.147961" lat="14.092992">
                <ele>48.203369</ele>
                <time>2006-07-29T07:06:29Z</time>
            </trkpt>
            <trkpt lon="99.148206" lat="14.092853">
                <ele>48.683960</ele>
                <time>2006-07-29T07:06:38Z</time>
            </trkpt>
            <trkpt lon="99.148290" lat="14.092726">
                <ele>48.203369</ele>
                <time>2006-07-29T07:06:43Z</time>
            </trkpt>
            <trkpt lon="99.148398" lat="14.092544">
                <ele>49.645264</ele>
                <time>2006-07-29T07:06:51Z</time>
            </trkpt>
            <trkpt lon="99.148308" lat="14.092297">
                <ele>49.645264</ele>
                <time>2006-07-29T07:06:58Z</time>
            </trkpt>
            <trkpt lon="99.148049" lat="14.091969">
                <ele>50.606567</ele>
                <time>2006-07-29T07:07:09Z</time>
            </trkpt>
            <trkpt lon="99.148550" lat="14.091616">
                <ele>51.567871</ele>
                <time>2006-07-29T07:07:23Z</time>
            </trkpt>
            <trkpt lon="99.148867" lat="14.091368">
                <ele>52.048584</ele>
                <time>2006-07-29T07:07:32Z</time>
            </trkpt>
            <trkpt lon="99.149501" lat="14.090853">
                <ele>52.048584</ele>
                <time>2006-07-29T07:07:50Z</time>
            </trkpt>
            <trkpt lon="99.149881" lat="14.090576">
                <ele>52.529175</ele>
                <time>2006-07-29T07:08:00Z</time>
            </trkpt>
            <trkpt lon="99.150094" lat="14.090472">
                <ele>53.009766</ele>
                <time>2006-07-29T07:08:05Z</time>
            </trkpt>
            <trkpt lon="99.150474" lat="14.090395">
                <ele>52.529175</ele>
                <time>2006-07-29T07:08:14Z</time>
            </trkpt>
            <trkpt lon="99.150498" lat="14.090222">
                <ele>52.529175</ele>
                <time>2006-07-29T07:08:22Z</time>
            </trkpt>
            <trkpt lon="99.150412" lat="14.089654">
                <ele>53.490479</ele>
                <time>2006-07-29T07:08:40Z</time>
            </trkpt>
            <trkpt lon="99.150321" lat="14.089247">
                <ele>55.893799</ele>
                <time>2006-07-29T07:08:54Z</time>
            </trkpt>
            <trkpt lon="99.150584" lat="14.089042">
                <ele>60.700317</ele>
                <time>2006-07-29T07:09:06Z</time>
            </trkpt>
            <trkpt lon="99.150804" lat="14.088932">
                <ele>59.739136</ele>
                <time>2006-07-29T07:09:14Z</time>
            </trkpt>
            <trkpt lon="99.150917" lat="14.088864">
                <ele>60.219727</ele>
                <time>2006-07-29T07:09:19Z</time>
            </trkpt>
            <trkpt lon="99.151610" lat="14.088575">
                <ele>61.181030</ele>
                <time>2006-07-29T07:09:40Z</time>
            </trkpt>
            <trkpt lon="99.152178" lat="14.088373">
                <ele>61.181030</ele>
                <time>2006-07-29T07:09:56Z</time>
            </trkpt>
            <trkpt lon="99.152638" lat="14.088380">
                <ele>63.103638</ele>
                <time>2006-07-29T07:10:11Z</time>
            </trkpt>
            <trkpt lon="99.153105" lat="14.088499">
                <ele>63.584351</ele>
                <time>2006-07-29T07:10:24Z</time>
            </trkpt>
            <trkpt lon="99.153297" lat="14.088404">
                <ele>67.429688</ele>
                <time>2006-07-29T07:10:35Z</time>
            </trkpt>
            <trkpt lon="99.153307" lat="14.088392">
                <ele>67.910278</ele>
                <time>2006-07-29T07:10:55Z</time>
            </trkpt>
            <trkpt lon="99.153393" lat="14.088327">
                <ele>71.755493</ele>
                <time>2006-07-29T07:11:58Z</time>
            </trkpt>
            <trkpt lon="99.153458" lat="14.088225">
                <ele>69.832886</ele>
                <time>2006-07-29T07:12:19Z</time>
            </trkpt>
            <trkpt lon="99.153382" lat="14.088203">
                <ele>66.948975</ele>
                <time>2006-07-29T07:13:16Z</time>
            </trkpt>
            <trkpt lon="99.153355" lat="14.088241">
                <ele>66.468262</ele>
                <time>2006-07-29T07:13:22Z</time>
            </trkpt>
            <trkpt lon="99.153334" lat="14.088309">
                <ele>66.468262</ele>
                <time>2006-07-29T07:13:26Z</time>
            </trkpt>
            <trkpt lon="99.153289" lat="14.088394">
                <ele>66.468262</ele>
                <time>2006-07-29T07:13:31Z</time>
            </trkpt>
            <trkpt lon="99.153305" lat="14.088477">
                <ele>65.987671</ele>
                <time>2006-07-29T07:13:38Z</time>
            </trkpt>
            <trkpt lon="99.153556" lat="14.088670">
                <ele>63.584351</ele>
                <time>2006-07-29T07:13:54Z</time>
            </trkpt>
            <trkpt lon="99.153797" lat="14.088922">
                <ele>61.661743</ele>
                <time>2006-07-29T07:14:10Z</time>
            </trkpt>
            <trkpt lon="99.154189" lat="14.089281">
                <ele>60.219727</ele>
                <time>2006-07-29T07:14:31Z</time>
            </trkpt>
            <trkpt lon="99.154506" lat="14.089509">
                <ele>59.739136</ele>
                <time>2006-07-29T07:14:44Z</time>
            </trkpt>
            <trkpt lon="99.154614" lat="14.090067">
                <ele>61.181030</ele>
                <time>2006-07-29T07:15:01Z</time>
            </trkpt>
            <trkpt lon="99.154635" lat="14.090178">
                <ele>61.181030</ele>
                <time>2006-07-29T07:15:04Z</time>
            </trkpt>
            <trkpt lon="99.154618" lat="14.090263">
                <ele>61.181030</ele>
                <time>2006-07-29T07:15:06Z</time>
            </trkpt>
            <trkpt lon="99.154421" lat="14.090920">
                <ele>54.932373</ele>
                <time>2006-07-29T07:15:25Z</time>
            </trkpt>
            <trkpt lon="99.154256" lat="14.091457">
                <ele>52.529175</ele>
                <time>2006-07-29T07:15:42Z</time>
            </trkpt>
            <trkpt lon="99.154129" lat="14.091922">
                <ele>54.451782</ele>
                <time>2006-07-29T07:15:57Z</time>
            </trkpt>
            <trkpt lon="99.153908" lat="14.092644">
                <ele>54.932373</ele>
                <time>2006-07-29T07:16:16Z</time>
            </trkpt>
            <trkpt lon="99.153815" lat="14.093085">
                <ele>54.932373</ele>
                <time>2006-07-29T07:16:31Z</time>
            </trkpt>
            <trkpt lon="99.153761" lat="14.093231">
                <ele>54.932373</ele>
                <time>2006-07-29T07:16:39Z</time>
            </trkpt>
            <trkpt lon="99.153687" lat="14.093506">
                <ele>55.893799</ele>
                <time>2006-07-29T07:16:52Z</time>
            </trkpt>
            <trkpt lon="99.153735" lat="14.093841">
                <ele>54.932373</ele>
                <time>2006-07-29T07:17:06Z</time>
            </trkpt>
            <trkpt lon="99.153805" lat="14.093893">
                <ele>54.451782</ele>
                <time>2006-07-29T07:17:10Z</time>
            </trkpt>
            <trkpt lon="99.153805" lat="14.093993">
                <ele>54.451782</ele>
                <time>2006-07-29T07:17:15Z</time>
            </trkpt>
            <trkpt lon="99.153806" lat="14.094038">
                <ele>53.971191</ele>
                <time>2006-07-29T07:17:17Z</time>
            </trkpt>
            <trkpt lon="99.153795" lat="14.094076">
                <ele>53.490479</ele>
                <time>2006-07-29T07:17:28Z</time>
            </trkpt>
            <trkpt lon="99.153838" lat="14.094059">
                <ele>52.048584</ele>
                <time>2006-07-29T07:17:47Z</time>
            </trkpt>
            <trkpt lon="99.153826" lat="14.094042">
                <ele>50.606567</ele>
                <time>2006-07-29T07:18:23Z</time>
            </trkpt>
            <trkpt lon="99.153816" lat="14.093950">
                <ele>50.606567</ele>
                <time>2006-07-29T07:18:29Z</time>
            </trkpt>
            <trkpt lon="99.153720" lat="14.093836">
                <ele>51.087158</ele>
                <time>2006-07-29T07:18:35Z</time>
            </trkpt>
            <trkpt lon="99.153645" lat="14.093492">
                <ele>51.087158</ele>
                <time>2006-07-29T07:18:48Z</time>
            </trkpt>
            <trkpt lon="99.153700" lat="14.093472">
                <ele>53.009766</ele>
                <time>2006-07-29T07:19:00Z</time>
            </trkpt>
            <trkpt lon="99.153973" lat="14.093581">
                <ele>51.567871</ele>
                <time>2006-07-29T07:19:12Z</time>
            </trkpt>
            <trkpt lon="99.154582" lat="14.093746">
                <ele>51.087158</ele>
                <time>2006-07-29T07:19:28Z</time>
            </trkpt>
            <trkpt lon="99.155137" lat="14.093875">
                <ele>49.164551</ele>
                <time>2006-07-29T07:19:43Z</time>
            </trkpt>
            <trkpt lon="99.155262" lat="14.093890">
                <ele>49.164551</ele>
                <time>2006-07-29T07:19:46Z</time>
            </trkpt>
            <trkpt lon="99.155472" lat="14.093899">
                <ele>49.164551</ele>
                <time>2006-07-29T07:19:56Z</time>
            </trkpt>
            <trkpt lon="99.155638" lat="14.093891">
                <ele>49.645264</ele>
                <time>2006-07-29T07:20:06Z</time>
            </trkpt>
            <trkpt lon="99.155881" lat="14.093875">
                <ele>49.164551</ele>
                <time>2006-07-29T07:20:20Z</time>
            </trkpt>
            <trkpt lon="99.156493" lat="14.093642">
                <ele>48.683960</ele>
                <time>2006-07-29T07:20:35Z</time>
            </trkpt>
            <trkpt lon="99.157206" lat="14.093200">
                <ele>47.722534</ele>
                <time>2006-07-29T07:20:54Z</time>
            </trkpt>
            <trkpt lon="99.158055" lat="14.092599">
                <ele>49.645264</ele>
                <time>2006-07-29T07:21:14Z</time>
            </trkpt>
            <trkpt lon="99.158996" lat="14.092037">
                <ele>52.048584</ele>
                <time>2006-07-29T07:21:35Z</time>
            </trkpt>
            <trkpt lon="99.159926" lat="14.091459">
                <ele>51.567871</ele>
                <time>2006-07-29T07:21:55Z</time>
            </trkpt>
            <trkpt lon="99.160592" lat="14.091093">
                <ele>49.645264</ele>
                <time>2006-07-29T07:22:09Z</time>
            </trkpt>
            <trkpt lon="99.161643" lat="14.090510">
                <ele>48.683960</ele>
                <time>2006-07-29T07:22:31Z</time>
            </trkpt>
            <trkpt lon="99.162606" lat="14.090059">
                <ele>48.203369</ele>
                <time>2006-07-29T07:22:51Z</time>
            </trkpt>
            <trkpt lon="99.163028" lat="14.089887">
                <ele>47.722534</ele>
                <time>2006-07-29T07:23:00Z</time>
            </trkpt>
            <trkpt lon="99.163245" lat="14.089806">
                <ele>47.722534</ele>
                <time>2006-07-29T07:23:05Z</time>
            </trkpt>
            <trkpt lon="99.164309" lat="14.089397">
                <ele>47.241821</ele>
                <time>2006-07-29T07:23:27Z</time>
            </trkpt>
            <trkpt lon="99.164434" lat="14.089335">
                <ele>47.241821</ele>
                <time>2006-07-29T07:23:30Z</time>
            </trkpt>
            <trkpt lon="99.164582" lat="14.089309">
                <ele>47.241821</ele>
                <time>2006-07-29T07:23:33Z</time>
            </trkpt>
            <trkpt lon="99.164921" lat="14.089208">
                <ele>47.241821</ele>
                <time>2006-07-29T07:23:40Z</time>
            </trkpt>
            <trkpt lon="99.165723" lat="14.088957">
                <ele>48.203369</ele>
                <time>2006-07-29T07:23:58Z</time>
            </trkpt>
            <trkpt lon="99.166432" lat="14.088756">
                <ele>48.203369</ele>
                <time>2006-07-29T07:24:19Z</time>
            </trkpt>
            <trkpt lon="99.166895" lat="14.088707">
                <ele>49.164551</ele>
                <time>2006-07-29T07:24:32Z</time>
            </trkpt>
            <trkpt lon="99.167627" lat="14.088708">
                <ele>48.683960</ele>
                <time>2006-07-29T07:24:49Z</time>
            </trkpt>
            <trkpt lon="99.168121" lat="14.088728">
                <ele>47.722534</ele>
                <time>2006-07-29T07:25:00Z</time>
            </trkpt>
            <trkpt lon="99.168107" lat="14.088823">
                <ele>47.722534</ele>
                <time>2006-07-29T07:25:07Z</time>
            </trkpt>
            <trkpt lon="99.168098" lat="14.089320">
                <ele>49.645264</ele>
                <time>2006-07-29T07:25:22Z</time>
            </trkpt>
            <trkpt lon="99.167998" lat="14.091786">
                <ele>49.645264</ele>
                <time>2006-07-29T07:26:05Z</time>
            </trkpt>
            <trkpt lon="99.168024" lat="14.091865">
                <ele>49.645264</ele>
                <time>2006-07-29T07:26:07Z</time>
            </trkpt>
            <trkpt lon="99.168093" lat="14.091986">
                <ele>48.683960</ele>
                <time>2006-07-29T07:26:10Z</time>
            </trkpt>
            <trkpt lon="99.168615" lat="14.092573">
                <ele>45.319214</ele>
                <time>2006-07-29T07:26:27Z</time>
            </trkpt>
            <trkpt lon="99.169069" lat="14.093058">
                <ele>45.319214</ele>
                <time>2006-07-29T07:26:44Z</time>
            </trkpt>
            <trkpt lon="99.169273" lat="14.093268">
                <ele>47.241821</ele>
                <time>2006-07-29T07:26:58Z</time>
            </trkpt>
            <trkpt lon="99.169418" lat="14.093430">
                <ele>48.203369</ele>
                <time>2006-07-29T07:27:12Z</time>
            </trkpt>
            <trkpt lon="99.169435" lat="14.093463">
                <ele>48.203369</ele>
                <time>2006-07-29T07:27:14Z</time>
            </trkpt>
            <trkpt lon="99.169437" lat="14.093483">
                <ele>48.683960</ele>
                <time>2006-07-29T07:27:26Z</time>
            </trkpt>
            <trkpt lon="99.169469" lat="14.093498">
                <ele>51.087158</ele>
                <time>2006-07-29T07:29:19Z</time>
            </trkpt>
            <trkpt lon="99.169700" lat="14.093798">
                <ele>50.125977</ele>
                <time>2006-07-29T07:29:35Z</time>
            </trkpt>
            <trkpt lon="99.169967" lat="14.094062">
                <ele>50.125977</ele>
                <time>2006-07-29T07:29:47Z</time>
            </trkpt>
            <trkpt lon="99.170320" lat="14.094452">
                <ele>51.087158</ele>
                <time>2006-07-29T07:30:05Z</time>
            </trkpt>
            <trkpt lon="99.171154" lat="14.094227">
                <ele>48.683960</ele>
                <time>2006-07-29T07:30:21Z</time>
            </trkpt>
            <trkpt lon="99.172159" lat="14.093710">
                <ele>48.203369</ele>
                <time>2006-07-29T07:30:40Z</time>
            </trkpt>
            <trkpt lon="99.173086" lat="14.092895">
                <ele>47.722534</ele>
                <time>2006-07-29T07:30:59Z</time>
            </trkpt>
            <trkpt lon="99.173960" lat="14.092106">
                <ele>48.203369</ele>
                <time>2006-07-29T07:31:18Z</time>
            </trkpt>
            <trkpt lon="99.174067" lat="14.092027">
                <ele>47.722534</ele>
                <time>2006-07-29T07:31:20Z</time>
            </trkpt>
            <trkpt lon="99.174337" lat="14.092106">
                <ele>47.722534</ele>
                <time>2006-07-29T07:31:25Z</time>
            </trkpt>
            <trkpt lon="99.174694" lat="14.092589">
                <ele>46.280640</ele>
                <time>2006-07-29T07:31:34Z</time>
            </trkpt>
            <trkpt lon="99.175731" lat="14.093201">
                <ele>45.799927</ele>
                <time>2006-07-29T07:31:51Z</time>
            </trkpt>
            <trkpt lon="99.176878" lat="14.093686">
                <ele>45.319214</ele>
                <time>2006-07-29T07:32:10Z</time>
            </trkpt>
            <trkpt lon="99.177459" lat="14.093750">
                <ele>44.838623</ele>
                <time>2006-07-29T07:32:23Z</time>
            </trkpt>
            <trkpt lon="99.178124" lat="14.093842">
                <ele>46.280640</ele>
                <time>2006-07-29T07:32:41Z</time>
            </trkpt>
            <trkpt lon="99.178406" lat="14.093897">
                <ele>46.280640</ele>
                <time>2006-07-29T07:32:51Z</time>
            </trkpt>
            <trkpt lon="99.178342" lat="14.094026">
                <ele>47.722534</ele>
                <time>2006-07-29T07:32:59Z</time>
            </trkpt>
            <trkpt lon="99.178045" lat="14.094182">
                <ele>49.164551</ele>
                <time>2006-07-29T07:33:13Z</time>
            </trkpt>
            <trkpt lon="99.177867" lat="14.094306">
                <ele>48.683960</ele>
                <time>2006-07-29T07:33:25Z</time>
            </trkpt>
            <trkpt lon="99.177699" lat="14.094376">
                <ele>49.164551</ele>
                <time>2006-07-29T07:33:47Z</time>
            </trkpt>
            <trkpt lon="99.177251" lat="14.094599">
                <ele>49.645264</ele>
                <time>2006-07-29T07:34:01Z</time>
            </trkpt>
            <trkpt lon="99.176383" lat="14.095055">
                <ele>49.164551</ele>
                <time>2006-07-29T07:34:21Z</time>
            </trkpt>
            <trkpt lon="99.175642" lat="14.095573">
                <ele>48.683960</ele>
                <time>2006-07-29T07:34:38Z</time>
            </trkpt>
            <trkpt lon="99.175133" lat="14.095971">
                <ele>47.722534</ele>
                <time>2006-07-29T07:34:54Z</time>
            </trkpt>
            <trkpt lon="99.175029" lat="14.095939">
                <ele>48.203369</ele>
                <time>2006-07-29T07:35:03Z</time>
            </trkpt>
            <trkpt lon="99.175033" lat="14.095942">
                <ele>53.009766</ele>
                <time>2006-07-29T07:36:00Z</time>
            </trkpt>
            <trkpt lon="99.175055" lat="14.095953">
                <ele>52.048584</ele>
                <time>2006-07-29T07:36:03Z</time>
            </trkpt>
            <trkpt lon="99.175100" lat="14.095967">
                <ele>52.048584</ele>
                <time>2006-07-29T07:36:08Z</time>
            </trkpt>
            <trkpt lon="99.175207" lat="14.095934">
                <ele>51.567871</ele>
                <time>2006-07-29T07:36:21Z</time>
            </trkpt>
            <trkpt lon="99.175243" lat="14.095930">
                <ele>51.087158</ele>
                <time>2006-07-29T07:36:39Z</time>
            </trkpt>
            <trkpt lon="99.175259" lat="14.095914">
                <ele>50.606567</ele>
                <time>2006-07-29T07:36:41Z</time>
            </trkpt>
            <trkpt lon="99.175294" lat="14.095873">
                <ele>50.606567</ele>
                <time>2006-07-29T07:36:45Z</time>
            </trkpt>
            <trkpt lon="99.175681" lat="14.095594">
                <ele>51.087158</ele>
                <time>2006-07-29T07:36:58Z</time>
            </trkpt>
            <trkpt lon="99.176326" lat="14.095127">
                <ele>52.529175</ele>
                <time>2006-07-29T07:37:16Z</time>
            </trkpt>
            <trkpt lon="99.176477" lat="14.095050">
                <ele>52.048584</ele>
                <time>2006-07-29T07:37:20Z</time>
            </trkpt>
            <trkpt lon="99.177301" lat="14.094617">
                <ele>50.125977</ele>
                <time>2006-07-29T07:37:39Z</time>
            </trkpt>
            <trkpt lon="99.178251" lat="14.094127">
                <ele>48.683960</ele>
                <time>2006-07-29T07:37:58Z</time>
            </trkpt>
            <trkpt lon="99.178664" lat="14.093896">
                <ele>48.203369</ele>
                <time>2006-07-29T07:38:11Z</time>
            </trkpt>
            <trkpt lon="99.178738" lat="14.093832">
                <ele>49.164551</ele>
                <time>2006-07-29T07:38:24Z</time>
            </trkpt>
            <trkpt lon="99.178780" lat="14.093804">
                <ele>49.164551</ele>
                <time>2006-07-29T07:38:27Z</time>
            </trkpt>
            <trkpt lon="99.178664" lat="14.093818">
                <ele>48.683960</ele>
                <time>2006-07-29T07:38:34Z</time>
            </trkpt>
            <trkpt lon="99.178574" lat="14.093886">
                <ele>47.722534</ele>
                <time>2006-07-29T07:38:42Z</time>
            </trkpt>
            <trkpt lon="99.178671" lat="14.093864">
                <ele>48.203369</ele>
                <time>2006-07-29T07:38:48Z</time>
            </trkpt>
            <trkpt lon="99.178796" lat="14.093748">
                <ele>47.722534</ele>
                <time>2006-07-29T07:38:53Z</time>
            </trkpt>
            <trkpt lon="99.179604" lat="14.093277">
                <ele>49.645264</ele>
                <time>2006-07-29T07:39:11Z</time>
            </trkpt>
            <trkpt lon="99.180874" lat="14.092501">
                <ele>51.087158</ele>
                <time>2006-07-29T07:39:37Z</time>
            </trkpt>
            <trkpt lon="99.181916" lat="14.091942">
                <ele>53.009766</ele>
                <time>2006-07-29T07:39:57Z</time>
            </trkpt>
            <trkpt lon="99.183346" lat="14.091440">
                <ele>48.683960</ele>
                <time>2006-07-29T07:40:22Z</time>
            </trkpt>
            <trkpt lon="99.184316" lat="14.091149">
                <ele>47.241821</ele>
                <time>2006-07-29T07:40:39Z</time>
            </trkpt>
            <trkpt lon="99.184385" lat="14.090963">
                <ele>46.761230</ele>
                <time>2006-07-29T07:40:44Z</time>
            </trkpt>
            <trkpt lon="99.183972" lat="14.090277">
                <ele>47.722534</ele>
                <time>2006-07-29T07:41:02Z</time>
            </trkpt>
            <trkpt lon="99.183741" lat="14.089850">
                <ele>47.722534</ele>
                <time>2006-07-29T07:41:15Z</time>
            </trkpt>
            <trkpt lon="99.183792" lat="14.089744">
                <ele>47.722534</ele>
                <time>2006-07-29T07:41:18Z</time>
            </trkpt>
            <trkpt lon="99.184174" lat="14.089283">
                <ele>49.164551</ele>
                <time>2006-07-29T07:41:32Z</time>
            </trkpt>
            <trkpt lon="99.184014" lat="14.088937">
                <ele>51.087158</ele>
                <time>2006-07-29T07:41:48Z</time>
            </trkpt>
            <trkpt lon="99.184008" lat="14.088922">
                <ele>51.087158</ele>
                <time>2006-07-29T07:41:51Z</time>
            </trkpt>
            <trkpt lon="99.184008" lat="14.088898">
                <ele>49.645264</ele>
                <time>2006-07-29T07:42:12Z</time>
            </trkpt>
            <trkpt lon="99.184003" lat="14.088782">
                <ele>49.645264</ele>
                <time>2006-07-29T07:42:42Z</time>
            </trkpt>
            <trkpt lon="99.183959" lat="14.088766">
                <ele>50.606567</ele>
                <time>2006-07-29T07:42:58Z</time>
            </trkpt>
            <trkpt lon="99.183933" lat="14.088757">
                <ele>50.125977</ele>
                <time>2006-07-29T07:43:12Z</time>
            </trkpt>
            <trkpt lon="99.183922" lat="14.088711">
                <ele>51.087158</ele>
                <time>2006-07-29T07:43:20Z</time>
            </trkpt>
            <trkpt lon="99.183944" lat="14.088636">
                <ele>51.567871</ele>
                <time>2006-07-29T07:43:26Z</time>
            </trkpt>
            <trkpt lon="99.183937" lat="14.088110">
                <ele>53.009766</ele>
                <time>2006-07-29T07:43:48Z</time>
            </trkpt>
            <trkpt lon="99.183800" lat="14.087984">
                <ele>52.529175</ele>
                <time>2006-07-29T07:43:53Z</time>
            </trkpt>
            <trkpt lon="99.183463" lat="14.087371">
                <ele>49.645264</ele>
                <time>2006-07-29T07:44:08Z</time>
            </trkpt>
            <trkpt lon="99.183281" lat="14.086904">
                <ele>50.125977</ele>
                <time>2006-07-29T07:44:18Z</time>
            </trkpt>
            <trkpt lon="99.182933" lat="14.086392">
                <ele>47.241821</ele>
                <time>2006-07-29T07:44:32Z</time>
            </trkpt>
            <trkpt lon="99.182856" lat="14.086283">
                <ele>46.761230</ele>
                <time>2006-07-29T07:44:34Z</time>
            </trkpt>
            <trkpt lon="99.182694" lat="14.086090">
                <ele>46.761230</ele>
                <time>2006-07-29T07:44:38Z</time>
            </trkpt>
            <trkpt lon="99.182544" lat="14.085695">
                <ele>45.799927</ele>
                <time>2006-07-29T07:44:46Z</time>
            </trkpt>
            <trkpt lon="99.182381" lat="14.085623">
                <ele>44.838623</ele>
                <time>2006-07-29T07:44:51Z</time>
            </trkpt>
            <trkpt lon="99.182260" lat="14.085626">
                <ele>44.838623</ele>
                <time>2006-07-29T07:44:54Z</time>
            </trkpt>
            <trkpt lon="99.181549" lat="14.085745">
                <ele>46.761230</ele>
                <time>2006-07-29T07:45:13Z</time>
            </trkpt>
            <trkpt lon="99.181441" lat="14.085765">
                <ele>46.761230</ele>
                <time>2006-07-29T07:45:16Z</time>
            </trkpt>
            <trkpt lon="99.181414" lat="14.085809">
                <ele>47.722534</ele>
                <time>2006-07-29T07:45:19Z</time>
            </trkpt>
            <trkpt lon="99.182146" lat="14.086254">
                <ele>43.877319</ele>
                <time>2006-07-29T07:45:41Z</time>
            </trkpt>
            <trkpt lon="99.182999" lat="14.086642">
                <ele>43.877319</ele>
                <time>2006-07-29T07:46:00Z</time>
            </trkpt>
            <trkpt lon="99.183171" lat="14.086773">
                <ele>46.761230</ele>
                <time>2006-07-29T07:46:12Z</time>
            </trkpt>
            <trkpt lon="99.183388" lat="14.087162">
                <ele>49.164551</ele>
                <time>2006-07-29T07:46:30Z</time>
            </trkpt>
            <trkpt lon="99.183564" lat="14.087544">
                <ele>47.722534</ele>
                <time>2006-07-29T07:46:43Z</time>
            </trkpt>
            <trkpt lon="99.183745" lat="14.087553">
                <ele>48.203369</ele>
                <time>2006-07-29T07:46:48Z</time>
            </trkpt>
            <trkpt lon="99.183973" lat="14.087526">
                <ele>48.203369</ele>
                <time>2006-07-29T07:46:54Z</time>
            </trkpt>
            <trkpt lon="99.184437" lat="14.087886">
                <ele>48.203369</ele>
                <time>2006-07-29T07:47:09Z</time>
            </trkpt>
            <trkpt lon="99.184867" lat="14.088116">
                <ele>48.203369</ele>
                <time>2006-07-29T07:47:21Z</time>
            </trkpt>
            <trkpt lon="99.185577" lat="14.088641">
                <ele>46.280640</ele>
                <time>2006-07-29T07:47:39Z</time>
            </trkpt>
            <trkpt lon="99.186115" lat="14.088593">
                <ele>46.761230</ele>
                <time>2006-07-29T07:47:44Z</time>
            </trkpt>
            <trkpt lon="99.186254" lat="14.088691">
                <ele>45.799927</ele>
                <time>2006-07-29T07:47:48Z</time>
            </trkpt>
            <trkpt lon="99.186300" lat="14.088681">
                <ele>46.280640</ele>
                <time>2006-07-29T07:47:50Z</time>
            </trkpt>
            <trkpt lon="99.186471" lat="14.088681">
                <ele>46.280640</ele>
                <time>2006-07-29T07:47:57Z</time>
            </trkpt>
            <trkpt lon="99.187003" lat="14.089349">
                <ele>47.722534</ele>
                <time>2006-07-29T07:48:17Z</time>
            </trkpt>
            <trkpt lon="99.187126" lat="14.089534">
                <ele>47.722534</ele>
                <time>2006-07-29T07:48:30Z</time>
            </trkpt>
            <trkpt lon="99.187130" lat="14.089562">
                <ele>47.722534</ele>
                <time>2006-07-29T07:48:34Z</time>
            </trkpt>
            <trkpt lon="99.187151" lat="14.089641">
                <ele>48.203369</ele>
                <time>2006-07-29T07:48:46Z</time>
            </trkpt>
            <trkpt lon="99.187187" lat="14.089672">
                <ele>47.722534</ele>
                <time>2006-07-29T07:49:05Z</time>
            </trkpt>
            <trkpt lon="99.187188" lat="14.089680">
                <ele>48.203369</ele>
                <time>2006-07-29T07:49:21Z</time>
            </trkpt>
            <trkpt lon="99.187233" lat="14.089681">
                <ele>47.241821</ele>
                <time>2006-07-29T07:49:34Z</time>
            </trkpt>
            <trkpt lon="99.187195" lat="14.089690">
                <ele>48.683960</ele>
                <time>2006-07-29T07:49:57Z</time>
            </trkpt>
            <trkpt lon="99.187177" lat="14.089663">
                <ele>48.683960</ele>
                <time>2006-07-29T07:50:00Z</time>
            </trkpt>
            <trkpt lon="99.187089" lat="14.089611">
                <ele>48.203369</ele>
                <time>2006-07-29T07:50:10Z</time>
            </trkpt>
            <trkpt lon="99.187004" lat="14.089489">
                <ele>47.722534</ele>
                <time>2006-07-29T07:50:16Z</time>
            </trkpt>
            <trkpt lon="99.186484" lat="14.088961">
                <ele>46.280640</ele>
                <time>2006-07-29T07:50:35Z</time>
            </trkpt>
            <trkpt lon="99.186128" lat="14.088606">
                <ele>46.761230</ele>
                <time>2006-07-29T07:50:47Z</time>
            </trkpt>
            <trkpt lon="99.186502" lat="14.088011">
                <ele>46.761230</ele>
                <time>2006-07-29T07:51:01Z</time>
            </trkpt>
            <trkpt lon="99.186621" lat="14.087875">
                <ele>45.799927</ele>
                <time>2006-07-29T07:51:04Z</time>
            </trkpt>
            <trkpt lon="99.187381" lat="14.087129">
                <ele>45.319214</ele>
                <time>2006-07-29T07:51:22Z</time>
            </trkpt>
            <trkpt lon="99.187414" lat="14.087079">
                <ele>45.319214</ele>
                <time>2006-07-29T07:51:23Z</time>
            </trkpt>
            <trkpt lon="99.187866" lat="14.086041">
                <ele>43.396606</ele>
                <time>2006-07-29T07:51:44Z</time>
            </trkpt>
            <trkpt lon="99.188261" lat="14.085301">
                <ele>42.916016</ele>
                <time>2006-07-29T07:52:00Z</time>
            </trkpt>
            <trkpt lon="99.188472" lat="14.084995">
                <ele>43.877319</ele>
                <time>2006-07-29T07:52:07Z</time>
            </trkpt>
            <trkpt lon="99.189063" lat="14.084674">
                <ele>44.358032</ele>
                <time>2006-07-29T07:52:19Z</time>
            </trkpt>
            <trkpt lon="99.189196" lat="14.084557">
                <ele>44.358032</ele>
                <time>2006-07-29T07:52:23Z</time>
            </trkpt>
            <trkpt lon="99.189419" lat="14.084121">
                <ele>43.877319</ele>
                <time>2006-07-29T07:52:37Z</time>
            </trkpt>
            <trkpt lon="99.189379" lat="14.084221">
                <ele>44.358032</ele>
                <time>2006-07-29T07:52:46Z</time>
            </trkpt>
            <trkpt lon="99.189330" lat="14.084306">
                <ele>44.358032</ele>
                <time>2006-07-29T07:52:50Z</time>
            </trkpt>
            <trkpt lon="99.189593" lat="14.084409">
                <ele>46.280640</ele>
                <time>2006-07-29T07:52:58Z</time>
            </trkpt>
            <trkpt lon="99.190678" lat="14.084034">
                <ele>46.280640</ele>
                <time>2006-07-29T07:53:20Z</time>
            </trkpt>
            <trkpt lon="99.191416" lat="14.083525">
                <ele>48.203369</ele>
                <time>2006-07-29T07:53:38Z</time>
            </trkpt>
            <trkpt lon="99.192297" lat="14.082913">
                <ele>50.125977</ele>
                <time>2006-07-29T07:53:57Z</time>
            </trkpt>
            <trkpt lon="99.193009" lat="14.082410">
                <ele>50.125977</ele>
                <time>2006-07-29T07:54:14Z</time>
            </trkpt>
            <trkpt lon="99.193839" lat="14.081883">
                <ele>50.125977</ele>
                <time>2006-07-29T07:54:33Z</time>
            </trkpt>
            <trkpt lon="99.194606" lat="14.081429">
                <ele>50.125977</ele>
                <time>2006-07-29T07:54:51Z</time>
            </trkpt>
            <trkpt lon="99.194627" lat="14.081409">
                <ele>50.125977</ele>
                <time>2006-07-29T07:54:52Z</time>
            </trkpt>
            <trkpt lon="99.194606" lat="14.081310">
                <ele>49.645264</ele>
                <time>2006-07-29T07:54:56Z</time>
            </trkpt>
            <trkpt lon="99.194269" lat="14.080710">
                <ele>49.645264</ele>
                <time>2006-07-29T07:55:13Z</time>
            </trkpt>
            <trkpt lon="99.193920" lat="14.080087">
                <ele>51.567871</ele>
                <time>2006-07-29T07:55:32Z</time>
            </trkpt>
            <trkpt lon="99.193631" lat="14.079514">
                <ele>52.048584</ele>
                <time>2006-07-29T07:55:49Z</time>
            </trkpt>
            <trkpt lon="99.193238" lat="14.078770">
                <ele>52.529175</ele>
                <time>2006-07-29T07:56:08Z</time>
            </trkpt>
            <trkpt lon="99.192765" lat="14.077868">
                <ele>53.490479</ele>
                <time>2006-07-29T07:56:29Z</time>
            </trkpt>
            <trkpt lon="99.192554" lat="14.077315">
                <ele>52.529175</ele>
                <time>2006-07-29T07:56:44Z</time>
            </trkpt>
            <trkpt lon="99.192570" lat="14.077297">
                <ele>51.567871</ele>
                <time>2006-07-29T07:56:58Z</time>
            </trkpt>
            <trkpt lon="99.192623" lat="14.077288">
                <ele>46.280640</ele>
                <time>2006-07-29T07:59:09Z</time>
            </trkpt>
            <trkpt lon="99.193164" lat="14.077231">
                <ele>48.203369</ele>
                <time>2006-07-29T07:59:24Z</time>
            </trkpt>
            <trkpt lon="99.193788" lat="14.077100">
                <ele>47.241821</ele>
                <time>2006-07-29T07:59:38Z</time>
            </trkpt>
            <trkpt lon="99.193917" lat="14.077064">
                <ele>47.241821</ele>
                <time>2006-07-29T07:59:51Z</time>
            </trkpt>
            <trkpt lon="99.193914" lat="14.077050">
                <ele>47.722534</ele>
                <time>2006-07-29T08:00:28Z</time>
            </trkpt>
            <trkpt lon="99.194118" lat="14.077003">
                <ele>47.241821</ele>
                <time>2006-07-29T08:00:46Z</time>
            </trkpt>
            <trkpt lon="99.194817" lat="14.076866">
                <ele>44.838623</ele>
                <time>2006-07-29T08:01:01Z</time>
            </trkpt>
            <trkpt lon="99.195330" lat="14.076716">
                <ele>44.358032</ele>
                <time>2006-07-29T08:01:16Z</time>
            </trkpt>
            <trkpt lon="99.195324" lat="14.076594">
                <ele>44.358032</ele>
                <time>2006-07-29T08:01:26Z</time>
            </trkpt>
            <trkpt lon="99.195290" lat="14.076365">
                <ele>45.319214</ele>
                <time>2006-07-29T08:01:37Z</time>
            </trkpt>
            <trkpt lon="99.195231" lat="14.076048">
                <ele>45.319214</ele>
                <time>2006-07-29T08:01:49Z</time>
            </trkpt>
            <trkpt lon="99.194990" lat="14.075214">
                <ele>46.761230</ele>
                <time>2006-07-29T08:02:12Z</time>
            </trkpt>
            <trkpt lon="99.194974" lat="14.075160">
                <ele>46.761230</ele>
                <time>2006-07-29T08:02:15Z</time>
            </trkpt>
            <trkpt lon="99.194952" lat="14.075169">
                <ele>46.761230</ele>
                <time>2006-07-29T08:02:19Z</time>
            </trkpt>
            <trkpt lon="99.195068" lat="14.075543">
                <ele>45.319214</ele>
                <time>2006-07-29T08:02:32Z</time>
            </trkpt>
            <trkpt lon="99.195123" lat="14.075701">
                <ele>45.319214</ele>
                <time>2006-07-29T08:02:36Z</time>
            </trkpt>
            <trkpt lon="99.195280" lat="14.076293">
                <ele>43.877319</ele>
                <time>2006-07-29T08:02:51Z</time>
            </trkpt>
            <trkpt lon="99.195358" lat="14.076938">
                <ele>45.319214</ele>
                <time>2006-07-29T08:03:06Z</time>
            </trkpt>
            <trkpt lon="99.195419" lat="14.077683">
                <ele>46.761230</ele>
                <time>2006-07-29T08:03:23Z</time>
            </trkpt>
            <trkpt lon="99.195468" lat="14.078194">
                <ele>47.722534</ele>
                <time>2006-07-29T08:03:38Z</time>
            </trkpt>
            <trkpt lon="99.195712" lat="14.078729">
                <ele>46.761230</ele>
                <time>2006-07-29T08:03:55Z</time>
            </trkpt>
            <trkpt lon="99.195950" lat="14.079300">
                <ele>48.203369</ele>
                <time>2006-07-29T08:04:14Z</time>
            </trkpt>
            <trkpt lon="99.196132" lat="14.079678">
                <ele>47.722534</ele>
                <time>2006-07-29T08:04:30Z</time>
            </trkpt>
            <trkpt lon="99.196363" lat="14.080167">
                <ele>47.241821</ele>
                <time>2006-07-29T08:04:47Z</time>
            </trkpt>
            <trkpt lon="99.196470" lat="14.080404">
                <ele>47.241821</ele>
                <time>2006-07-29T08:04:56Z</time>
            </trkpt>
            <trkpt lon="99.196478" lat="14.080316">
                <ele>46.761230</ele>
                <time>2006-07-29T08:05:05Z</time>
            </trkpt>
            <trkpt lon="99.196424" lat="14.080258">
                <ele>47.241821</ele>
                <time>2006-07-29T08:05:09Z</time>
            </trkpt>
            <trkpt lon="99.196137" lat="14.079681">
                <ele>47.722534</ele>
                <time>2006-07-29T08:05:26Z</time>
            </trkpt>
            <trkpt lon="99.195771" lat="14.078829">
                <ele>46.761230</ele>
                <time>2006-07-29T08:05:46Z</time>
            </trkpt>
            <trkpt lon="99.195446" lat="14.078023">
                <ele>45.799927</ele>
                <time>2006-07-29T08:06:04Z</time>
            </trkpt>
            <trkpt lon="99.195389" lat="14.077286">
                <ele>43.877319</ele>
                <time>2006-07-29T08:06:20Z</time>
            </trkpt>
            <trkpt lon="99.195382" lat="14.077139">
                <ele>43.877319</ele>
                <time>2006-07-29T08:06:23Z</time>
            </trkpt>
            <trkpt lon="99.195262" lat="14.076197">
                <ele>42.916016</ele>
                <time>2006-07-29T08:06:43Z</time>
            </trkpt>
            <trkpt lon="99.195018" lat="14.075362">
                <ele>43.877319</ele>
                <time>2006-07-29T08:07:01Z</time>
            </trkpt>
            <trkpt lon="99.194812" lat="14.074403">
                <ele>44.838623</ele>
                <time>2006-07-29T08:07:21Z</time>
            </trkpt>
            <trkpt lon="99.194330" lat="14.073498">
                <ele>47.241821</ele>
                <time>2006-07-29T08:07:43Z</time>
            </trkpt>
            <trkpt lon="99.194266" lat="14.073372">
                <ele>48.203369</ele>
                <time>2006-07-29T08:07:46Z</time>
            </trkpt>
            <trkpt lon="99.194405" lat="14.073110">
                <ele>48.203369</ele>
                <time>2006-07-29T08:07:53Z</time>
            </trkpt>
            <trkpt lon="99.195690" lat="14.072584">
                <ele>48.203369</ele>
                <time>2006-07-29T08:08:18Z</time>
            </trkpt>
            <trkpt lon="99.196612" lat="14.072461">
                <ele>47.722534</ele>
                <time>2006-07-29T08:08:35Z</time>
            </trkpt>
            <trkpt lon="99.196720" lat="14.072439">
                <ele>47.722534</ele>
                <time>2006-07-29T08:08:37Z</time>
            </trkpt>
            <trkpt lon="99.196938" lat="14.072462">
                <ele>47.722534</ele>
                <time>2006-07-29T08:08:41Z</time>
            </trkpt>
            <trkpt lon="99.197870" lat="14.072654">
                <ele>49.164551</ele>
                <time>2006-07-29T08:08:58Z</time>
            </trkpt>
            <trkpt lon="99.198100" lat="14.073222">
                <ele>48.203369</ele>
                <time>2006-07-29T08:09:12Z</time>
            </trkpt>
            <trkpt lon="99.198270" lat="14.073854">
                <ele>46.280640</ele>
                <time>2006-07-29T08:09:28Z</time>
            </trkpt>
            <trkpt lon="99.198468" lat="14.074555">
                <ele>44.838623</ele>
                <time>2006-07-29T08:09:45Z</time>
            </trkpt>
            <trkpt lon="99.198547" lat="14.074859">
                <ele>44.358032</ele>
                <time>2006-07-29T08:09:52Z</time>
            </trkpt>
            <trkpt lon="99.198826" lat="14.075811">
                <ele>43.877319</ele>
                <time>2006-07-29T08:10:13Z</time>
            </trkpt>
            <trkpt lon="99.198895" lat="14.076050">
                <ele>43.396606</ele>
                <time>2006-07-29T08:10:19Z</time>
            </trkpt>
            <trkpt lon="99.199068" lat="14.076765">
                <ele>42.916016</ele>
                <time>2006-07-29T08:10:37Z</time>
            </trkpt>
            <trkpt lon="99.199121" lat="14.077138">
                <ele>44.358032</ele>
                <time>2006-07-29T08:10:50Z</time>
            </trkpt>
            <trkpt lon="99.199112" lat="14.077674">
                <ele>44.838623</ele>
                <time>2006-07-29T08:11:06Z</time>
            </trkpt>
            <trkpt lon="99.199118" lat="14.078291">
                <ele>43.396606</ele>
                <time>2006-07-29T08:11:22Z</time>
            </trkpt>
            <trkpt lon="99.198894" lat="14.078774">
                <ele>43.396606</ele>
                <time>2006-07-29T08:11:35Z</time>
            </trkpt>
            <trkpt lon="99.198893" lat="14.079022">
                <ele>43.396606</ele>
                <time>2006-07-29T08:11:41Z</time>
            </trkpt>
            <trkpt lon="99.199007" lat="14.079536">
                <ele>43.396606</ele>
                <time>2006-07-29T08:11:54Z</time>
            </trkpt>
            <trkpt lon="99.199159" lat="14.079961">
                <ele>44.358032</ele>
                <time>2006-07-29T08:12:08Z</time>
            </trkpt>
            <trkpt lon="99.199188" lat="14.079993">
                <ele>45.319214</ele>
                <time>2006-07-29T08:12:19Z</time>
            </trkpt>
            <trkpt lon="99.199211" lat="14.080007">
                <ele>47.241821</ele>
                <time>2006-07-29T08:12:32Z</time>
            </trkpt>
            <trkpt lon="99.199225" lat="14.079999">
                <ele>47.241821</ele>
                <time>2006-07-29T08:12:39Z</time>
            </trkpt>
            <trkpt lon="99.199288" lat="14.079964">
                <ele>47.241821</ele>
                <time>2006-07-29T08:12:45Z</time>
            </trkpt>
            <trkpt lon="99.199562" lat="14.079858">
                <ele>47.241821</ele>
                <time>2006-07-29T08:12:59Z</time>
            </trkpt>
            <trkpt lon="99.199944" lat="14.079741">
                <ele>47.241821</ele>
                <time>2006-07-29T08:13:11Z</time>
            </trkpt>
            <trkpt lon="99.200432" lat="14.079583">
                <ele>47.241821</ele>
                <time>2006-07-29T08:13:25Z</time>
            </trkpt>
            <trkpt lon="99.200556" lat="14.079550">
                <ele>46.761230</ele>
                <time>2006-07-29T08:13:28Z</time>
            </trkpt>
            <trkpt lon="99.200824" lat="14.079357">
                <ele>45.799927</ele>
                <time>2006-07-29T08:13:36Z</time>
            </trkpt>
            <trkpt lon="99.200928" lat="14.079441">
                <ele>46.280640</ele>
                <time>2006-07-29T08:13:41Z</time>
            </trkpt>
            <trkpt lon="99.201162" lat="14.080049">
                <ele>46.761230</ele>
                <time>2006-07-29T08:13:59Z</time>
            </trkpt>
            <trkpt lon="99.201255" lat="14.080333">
                <ele>45.799927</ele>
                <time>2006-07-29T08:14:10Z</time>
            </trkpt>
            <trkpt lon="99.201249" lat="14.080416">
                <ele>45.799927</ele>
                <time>2006-07-29T08:14:24Z</time>
            </trkpt>
            <trkpt lon="99.201264" lat="14.080464">
                <ele>45.799927</ele>
                <time>2006-07-29T08:14:38Z</time>
            </trkpt>
            <trkpt lon="99.201271" lat="14.080481">
                <ele>45.319214</ele>
                <time>2006-07-29T08:14:40Z</time>
            </trkpt>
            <trkpt lon="99.201360" lat="14.080727">
                <ele>45.319214</ele>
                <time>2006-07-29T08:14:53Z</time>
            </trkpt>
            <trkpt lon="99.201402" lat="14.080832">
                <ele>45.799927</ele>
                <time>2006-07-29T08:15:04Z</time>
            </trkpt>
            <trkpt lon="99.201412" lat="14.080883">
                <ele>47.241821</ele>
                <time>2006-07-29T08:15:16Z</time>
            </trkpt>
            <trkpt lon="99.201524" lat="14.081148">
                <ele>47.241821</ele>
                <time>2006-07-29T08:15:30Z</time>
            </trkpt>
            <trkpt lon="99.201652" lat="14.081548">
                <ele>47.722534</ele>
                <time>2006-07-29T08:15:45Z</time>
            </trkpt>
            <trkpt lon="99.201700" lat="14.081701">
                <ele>48.203369</ele>
                <time>2006-07-29T08:15:52Z</time>
            </trkpt>
            <trkpt lon="99.201687" lat="14.081717">
                <ele>49.164551</ele>
                <time>2006-07-29T08:16:06Z</time>
            </trkpt>
            <trkpt lon="99.201699" lat="14.081729">
                <ele>51.087158</ele>
                <time>2006-07-29T08:17:37Z</time>
            </trkpt>
            <trkpt lon="99.201720" lat="14.081715">
                <ele>51.087158</ele>
                <time>2006-07-29T08:17:40Z</time>
            </trkpt>
            <trkpt lon="99.201846" lat="14.081944">
                <ele>49.645264</ele>
                <time>2006-07-29T08:17:55Z</time>
            </trkpt>
            <trkpt lon="99.202018" lat="14.082366">
                <ele>49.645264</ele>
                <time>2006-07-29T08:18:13Z</time>
            </trkpt>
            <trkpt lon="99.202241" lat="14.082904">
                <ele>49.645264</ele>
                <time>2006-07-29T08:18:33Z</time>
            </trkpt>
            <trkpt lon="99.202340" lat="14.083155">
                <ele>50.125977</ele>
                <time>2006-07-29T08:18:44Z</time>
            </trkpt>
            <trkpt lon="99.202370" lat="14.083203">
                <ele>51.567871</ele>
                <time>2006-07-29T08:18:57Z</time>
            </trkpt>
            <trkpt lon="99.202392" lat="14.083181">
                <ele>39.070679</ele>
                <time>2006-07-29T08:20:53Z</time>
            </trkpt>
            <trkpt lon="99.202743" lat="14.083097">
                <ele>43.396606</ele>
                <time>2006-07-29T08:21:05Z</time>
            </trkpt>
            <trkpt lon="99.203424" lat="14.083014">
                <ele>48.683960</ele>
                <time>2006-07-29T08:21:23Z</time>
            </trkpt>
            <trkpt lon="99.203936" lat="14.082855">
                <ele>51.087158</ele>
                <time>2006-07-29T08:21:36Z</time>
            </trkpt>
            <trkpt lon="99.204409" lat="14.082735">
                <ele>51.087158</ele>
                <time>2006-07-29T08:21:49Z</time>
            </trkpt>
            <trkpt lon="99.204872" lat="14.082617">
                <ele>50.125977</ele>
                <time>2006-07-29T08:22:06Z</time>
            </trkpt>
            <trkpt lon="99.204976" lat="14.082647">
                <ele>50.125977</ele>
                <time>2006-07-29T08:22:10Z</time>
            </trkpt>
            <trkpt lon="99.205194" lat="14.083125">
                <ele>48.683960</ele>
                <time>2006-07-29T08:22:26Z</time>
            </trkpt>
            <trkpt lon="99.205522" lat="14.083832">
                <ele>46.761230</ele>
                <time>2006-07-29T08:22:48Z</time>
            </trkpt>
            <trkpt lon="99.205560" lat="14.083879">
                <ele>48.203369</ele>
                <time>2006-07-29T08:23:03Z</time>
            </trkpt>
            <trkpt lon="99.205601" lat="14.083928">
                <ele>53.490479</ele>
                <time>2006-07-29T08:23:23Z</time>
            </trkpt>
            <trkpt lon="99.205614" lat="14.083935">
                <ele>54.451782</ele>
                <time>2006-07-29T08:23:24Z</time>
            </trkpt>
            <trkpt lon="99.205642" lat="14.083950">
                <ele>53.490479</ele>
                <time>2006-07-29T08:23:27Z</time>
            </trkpt>
            <trkpt lon="99.205729" lat="14.083996">
                <ele>50.606567</ele>
                <time>2006-07-29T08:23:39Z</time>
            </trkpt>
            <trkpt lon="99.205777" lat="14.084006">
                <ele>52.048584</ele>
                <time>2006-07-29T08:23:44Z</time>
            </trkpt>
            <trkpt lon="99.205852" lat="14.083998">
                <ele>53.971191</ele>
                <time>2006-07-29T08:23:51Z</time>
            </trkpt>
            <trkpt lon="99.205985" lat="14.084002">
                <ele>53.971191</ele>
                <time>2006-07-29T08:24:07Z</time>
            </trkpt>
            <trkpt lon="99.205988" lat="14.084000">
                <ele>56.855103</ele>
                <time>2006-07-29T08:24:25Z</time>
            </trkpt>
            <trkpt lon="99.206115" lat="14.083996">
                <ele>54.932373</ele>
                <time>2006-07-29T08:24:40Z</time>
            </trkpt>
            <trkpt lon="99.206180" lat="14.083975">
                <ele>53.009766</ele>
                <time>2006-07-29T08:24:52Z</time>
            </trkpt>
            <trkpt lon="99.206219" lat="14.083969">
                <ele>54.932373</ele>
                <time>2006-07-29T08:25:08Z</time>
            </trkpt>
            <trkpt lon="99.206294" lat="14.084006">
                <ele>56.374512</ele>
                <time>2006-07-29T08:25:25Z</time>
            </trkpt>
            <trkpt lon="99.206339" lat="14.084050">
                <ele>53.971191</ele>
                <time>2006-07-29T08:25:42Z</time>
            </trkpt>
            <trkpt lon="99.206418" lat="14.084117">
                <ele>55.413086</ele>
                <time>2006-07-29T08:26:02Z</time>
            </trkpt>
            <trkpt lon="99.206433" lat="14.084145">
                <ele>54.451782</ele>
                <time>2006-07-29T08:26:22Z</time>
            </trkpt>
            <trkpt lon="99.206463" lat="14.084175">
                <ele>55.413086</ele>
                <time>2006-07-29T08:26:38Z</time>
            </trkpt>
            <trkpt lon="99.206507" lat="14.084194">
                <ele>55.413086</ele>
                <time>2006-07-29T08:26:48Z</time>
            </trkpt>
            <trkpt lon="99.206596" lat="14.084279">
                <ele>55.893799</ele>
                <time>2006-07-29T08:27:07Z</time>
            </trkpt>
            <trkpt lon="99.206722" lat="14.084328">
                <ele>57.816528</ele>
                <time>2006-07-29T08:27:26Z</time>
            </trkpt>
            <trkpt lon="99.206860" lat="14.084289">
                <ele>56.855103</ele>
                <time>2006-07-29T08:27:43Z</time>
            </trkpt>
            <trkpt lon="99.206983" lat="14.084246">
                <ele>56.855103</ele>
                <time>2006-07-29T08:27:56Z</time>
            </trkpt>
            <trkpt lon="99.207064" lat="14.084240">
                <ele>57.816528</ele>
                <time>2006-07-29T08:28:02Z</time>
            </trkpt>
            <trkpt lon="99.207284" lat="14.084168">
                <ele>57.816528</ele>
                <time>2006-07-29T08:28:18Z</time>
            </trkpt>
            <trkpt lon="99.207325" lat="14.084178">
                <ele>62.142334</ele>
                <time>2006-07-29T08:28:33Z</time>
            </trkpt>
            <trkpt lon="99.207392" lat="14.084184">
                <ele>62.142334</ele>
                <time>2006-07-29T08:28:52Z</time>
            </trkpt>
            <trkpt lon="99.207585" lat="14.084128">
                <ele>58.777710</ele>
                <time>2006-07-29T08:29:08Z</time>
            </trkpt>
            <trkpt lon="99.207634" lat="14.084122">
                <ele>58.297119</ele>
                <time>2006-07-29T08:29:14Z</time>
            </trkpt>
            <trkpt lon="99.207782" lat="14.084148">
                <ele>56.374512</ele>
                <time>2006-07-29T08:29:23Z</time>
            </trkpt>
            <trkpt lon="99.207848" lat="14.084144">
                <ele>55.893799</ele>
                <time>2006-07-29T08:29:34Z</time>
            </trkpt>
            <trkpt lon="99.208003" lat="14.084148">
                <ele>53.971191</ele>
                <time>2006-07-29T08:29:47Z</time>
            </trkpt>
            <trkpt lon="99.208027" lat="14.084134">
                <ele>54.451782</ele>
                <time>2006-07-29T08:29:49Z</time>
            </trkpt>
            <trkpt lon="99.208171" lat="14.083940">
                <ele>56.374512</ele>
                <time>2006-07-29T08:30:08Z</time>
            </trkpt>
            <trkpt lon="99.208184" lat="14.083852">
                <ele>55.413086</ele>
                <time>2006-07-29T08:30:15Z</time>
            </trkpt>
            <trkpt lon="99.208174" lat="14.083808">
                <ele>54.932373</ele>
                <time>2006-07-29T08:30:19Z</time>
            </trkpt>
            <trkpt lon="99.208335" lat="14.083606">
                <ele>54.932373</ele>
                <time>2006-07-29T08:30:36Z</time>
            </trkpt>
            <trkpt lon="99.208339" lat="14.083595">
                <ele>53.971191</ele>
                <time>2006-07-29T08:30:37Z</time>
            </trkpt>
            <trkpt lon="99.208365" lat="14.083521">
                <ele>52.529175</ele>
                <time>2006-07-29T08:30:43Z</time>
            </trkpt>
            <trkpt lon="99.208430" lat="14.083479">
                <ele>53.971191</ele>
                <time>2006-07-29T08:30:50Z</time>
            </trkpt>
            <trkpt lon="99.208557" lat="14.083461">
                <ele>54.932373</ele>
                <time>2006-07-29T08:31:05Z</time>
            </trkpt>
            <trkpt lon="99.208643" lat="14.083447">
                <ele>58.297119</ele>
                <time>2006-07-29T08:31:18Z</time>
            </trkpt>
            <trkpt lon="99.208673" lat="14.083431">
                <ele>58.777710</ele>
                <time>2006-07-29T08:31:27Z</time>
            </trkpt>
            <trkpt lon="99.208817" lat="14.083278">
                <ele>57.816528</ele>
                <time>2006-07-29T08:31:41Z</time>
            </trkpt>
            <trkpt lon="99.208846" lat="14.083186">
                <ele>56.855103</ele>
                <time>2006-07-29T08:31:46Z</time>
            </trkpt>
            <trkpt lon="99.208920" lat="14.083095">
                <ele>56.855103</ele>
                <time>2006-07-29T08:31:52Z</time>
            </trkpt>
            <trkpt lon="99.208986" lat="14.083064">
                <ele>56.374512</ele>
                <time>2006-07-29T08:31:56Z</time>
            </trkpt>
            <trkpt lon="99.209167" lat="14.082976">
                <ele>56.374512</ele>
                <time>2006-07-29T08:32:05Z</time>
            </trkpt>
            <trkpt lon="99.209182" lat="14.082914">
                <ele>55.893799</ele>
                <time>2006-07-29T08:32:09Z</time>
            </trkpt>
            <trkpt lon="99.209241" lat="14.082712">
                <ele>53.009766</ele>
                <time>2006-07-29T08:32:24Z</time>
            </trkpt>
            <trkpt lon="99.209303" lat="14.082471">
                <ele>50.606567</ele>
                <time>2006-07-29T08:32:43Z</time>
            </trkpt>
            <trkpt lon="99.209389" lat="14.082278">
                <ele>50.125977</ele>
                <time>2006-07-29T08:32:57Z</time>
            </trkpt>
            <trkpt lon="99.209765" lat="14.082132">
                <ele>52.048584</ele>
                <time>2006-07-29T08:33:12Z</time>
            </trkpt>
            <trkpt lon="99.210076" lat="14.081994">
                <ele>52.048584</ele>
                <time>2006-07-29T08:33:26Z</time>
            </trkpt>
            <trkpt lon="99.210361" lat="14.081893">
                <ele>51.567871</ele>
                <time>2006-07-29T08:33:39Z</time>
            </trkpt>
            <trkpt lon="99.210384" lat="14.081883">
                <ele>51.567871</ele>
                <time>2006-07-29T08:33:40Z</time>
            </trkpt>
            <trkpt lon="99.210448" lat="14.081763">
                <ele>51.087158</ele>
                <time>2006-07-29T08:33:46Z</time>
            </trkpt>
            <trkpt lon="99.210336" lat="14.081527">
                <ele>51.087158</ele>
                <time>2006-07-29T08:33:58Z</time>
            </trkpt>
            <trkpt lon="99.210194" lat="14.081403">
                <ele>51.567871</ele>
                <time>2006-07-29T08:34:06Z</time>
            </trkpt>
            <trkpt lon="99.210075" lat="14.081127">
                <ele>49.645264</ele>
                <time>2006-07-29T08:34:19Z</time>
            </trkpt>
            <trkpt lon="99.209848" lat="14.080683">
                <ele>49.164551</ele>
                <time>2006-07-29T08:34:33Z</time>
            </trkpt>
            <trkpt lon="99.209793" lat="14.080556">
                <ele>48.683960</ele>
                <time>2006-07-29T08:34:37Z</time>
            </trkpt>
            <trkpt lon="99.209940" lat="14.080409">
                <ele>49.164551</ele>
                <time>2006-07-29T08:34:46Z</time>
            </trkpt>
            <trkpt lon="99.209898" lat="14.080326">
                <ele>49.645264</ele>
                <time>2006-07-29T08:34:51Z</time>
            </trkpt>
            <trkpt lon="99.209867" lat="14.080270">
                <ele>49.645264</ele>
                <time>2006-07-29T08:34:53Z</time>
            </trkpt>
            <trkpt lon="99.209619" lat="14.079949">
                <ele>49.645264</ele>
                <time>2006-07-29T08:35:04Z</time>
            </trkpt>
            <trkpt lon="99.209198" lat="14.079421">
                <ele>48.683960</ele>
                <time>2006-07-29T08:35:21Z</time>
            </trkpt>
            <trkpt lon="99.209076" lat="14.079353">
                <ele>49.645264</ele>
                <time>2006-07-29T08:35:24Z</time>
            </trkpt>
            <trkpt lon="99.208887" lat="14.079185">
                <ele>49.645264</ele>
                <time>2006-07-29T08:35:29Z</time>
            </trkpt>
            <trkpt lon="99.208443" lat="14.078395">
                <ele>49.645264</ele>
                <time>2006-07-29T08:35:48Z</time>
            </trkpt>
            <trkpt lon="99.208297" lat="14.078111">
                <ele>49.164551</ele>
                <time>2006-07-29T08:35:56Z</time>
            </trkpt>
            <trkpt lon="99.208640" lat="14.077866">
                <ele>48.683960</ele>
                <time>2006-07-29T08:36:08Z</time>
            </trkpt>
            <trkpt lon="99.209397" lat="14.077383">
                <ele>48.203369</ele>
                <time>2006-07-29T08:36:26Z</time>
            </trkpt>
            <trkpt lon="99.210450" lat="14.076732">
                <ele>49.645264</ele>
                <time>2006-07-29T08:36:50Z</time>
            </trkpt>
            <trkpt lon="99.211432" lat="14.076127">
                <ele>50.125977</ele>
                <time>2006-07-29T08:37:12Z</time>
            </trkpt>
            <trkpt lon="99.212562" lat="14.075438">
                <ele>51.567871</ele>
                <time>2006-07-29T08:37:36Z</time>
            </trkpt>
            <trkpt lon="99.213587" lat="14.074807">
                <ele>52.048584</ele>
                <time>2006-07-29T08:37:59Z</time>
            </trkpt>
            <trkpt lon="99.214504" lat="14.074366">
                <ele>53.490479</ele>
                <time>2006-07-29T08:38:18Z</time>
            </trkpt>
            <trkpt lon="99.215487" lat="14.074037">
                <ele>55.893799</ele>
                <time>2006-07-29T08:38:37Z</time>
            </trkpt>
            <trkpt lon="99.216300" lat="14.073761">
                <ele>57.335815</ele>
                <time>2006-07-29T08:38:53Z</time>
            </trkpt>
            <trkpt lon="99.216679" lat="14.073617">
                <ele>56.855103</ele>
                <time>2006-07-29T08:39:01Z</time>
            </trkpt>
            <trkpt lon="99.216809" lat="14.073530">
                <ele>55.893799</ele>
                <time>2006-07-29T08:39:09Z</time>
            </trkpt>
            <trkpt lon="99.216830" lat="14.073525">
                <ele>53.490479</ele>
                <time>2006-07-29T08:39:52Z</time>
            </trkpt>
            <trkpt lon="99.216846" lat="14.073522">
                <ele>52.529175</ele>
                <time>2006-07-29T08:40:04Z</time>
            </trkpt>
            <trkpt lon="99.217210" lat="14.073443">
                <ele>53.009766</ele>
                <time>2006-07-29T08:40:17Z</time>
            </trkpt>
            <trkpt lon="99.218215" lat="14.073121">
                <ele>54.932373</ele>
                <time>2006-07-29T08:40:38Z</time>
            </trkpt>
            <trkpt lon="99.219020" lat="14.072862">
                <ele>54.932373</ele>
                <time>2006-07-29T08:40:57Z</time>
            </trkpt>
            <trkpt lon="99.219440" lat="14.072716">
                <ele>54.932373</ele>
                <time>2006-07-29T08:41:11Z</time>
            </trkpt>
            <trkpt lon="99.219927" lat="14.072546">
                <ele>54.451782</ele>
                <time>2006-07-29T08:41:27Z</time>
            </trkpt>
            <trkpt lon="99.220324" lat="14.072422">
                <ele>53.009766</ele>
                <time>2006-07-29T08:41:42Z</time>
            </trkpt>
            <trkpt lon="99.220395" lat="14.072389">
                <ele>52.529175</ele>
                <time>2006-07-29T08:41:49Z</time>
            </trkpt>
            <trkpt lon="99.220350" lat="14.072380">
                <ele>52.529175</ele>
                <time>2006-07-29T08:41:53Z</time>
            </trkpt>
            <trkpt lon="99.219867" lat="14.072514">
                <ele>51.087158</ele>
                <time>2006-07-29T08:42:07Z</time>
            </trkpt>
            <trkpt lon="99.219122" lat="14.072762">
                <ele>51.087158</ele>
                <time>2006-07-29T08:42:27Z</time>
            </trkpt>
            <trkpt lon="99.218343" lat="14.073028">
                <ele>51.087158</ele>
                <time>2006-07-29T08:42:46Z</time>
            </trkpt>
            <trkpt lon="99.217606" lat="14.073281">
                <ele>51.087158</ele>
                <time>2006-07-29T08:43:05Z</time>
            </trkpt>
            <trkpt lon="99.217037" lat="14.073471">
                <ele>50.606567</ele>
                <time>2006-07-29T08:43:23Z</time>
            </trkpt>
            <trkpt lon="99.216968" lat="14.073490">
                <ele>50.606567</ele>
                <time>2006-07-29T08:43:37Z</time>
            </trkpt>
            <trkpt lon="99.216971" lat="14.073511">
                <ele>50.606567</ele>
                <time>2006-07-29T08:43:48Z</time>
            </trkpt>
            <trkpt lon="99.216814" lat="14.073554">
                <ele>49.645264</ele>
                <time>2006-07-29T08:43:56Z</time>
            </trkpt>
            <trkpt lon="99.216743" lat="14.073470">
                <ele>49.645264</ele>
                <time>2006-07-29T08:44:00Z</time>
            </trkpt>
            <trkpt lon="99.216454" lat="14.072891">
                <ele>50.125977</ele>
                <time>2006-07-29T08:44:16Z</time>
            </trkpt>
            <trkpt lon="99.216054" lat="14.072054">
                <ele>51.087158</ele>
                <time>2006-07-29T08:44:35Z</time>
            </trkpt>
            <trkpt lon="99.215961" lat="14.071797">
                <ele>50.606567</ele>
                <time>2006-07-29T08:44:42Z</time>
            </trkpt>
            <trkpt lon="99.216343" lat="14.071606">
                <ele>51.087158</ele>
                <time>2006-07-29T08:44:54Z</time>
            </trkpt>
            <trkpt lon="99.216702" lat="14.071445">
                <ele>51.087158</ele>
                <time>2006-07-29T08:45:05Z</time>
            </trkpt>
            <trkpt lon="99.216665" lat="14.071300">
                <ele>51.087158</ele>
                <time>2006-07-29T08:45:10Z</time>
            </trkpt>
            <trkpt lon="99.216336" lat="14.070620">
                <ele>51.567871</ele>
                <time>2006-07-29T08:45:29Z</time>
            </trkpt>
            <trkpt lon="99.216079" lat="14.070120">
                <ele>51.087158</ele>
                <time>2006-07-29T08:45:43Z</time>
            </trkpt>
            <trkpt lon="99.215832" lat="14.069555">
                <ele>50.606567</ele>
                <time>2006-07-29T08:45:58Z</time>
            </trkpt>
            <trkpt lon="99.215790" lat="14.069486">
                <ele>50.606567</ele>
                <time>2006-07-29T08:46:00Z</time>
            </trkpt>
            <trkpt lon="99.215629" lat="14.069226">
                <ele>50.606567</ele>
                <time>2006-07-29T08:46:09Z</time>
            </trkpt>
            <trkpt lon="99.215573" lat="14.069211">
                <ele>51.087158</ele>
                <time>2006-07-29T08:46:19Z</time>
            </trkpt>
            <trkpt lon="99.215281" lat="14.069479">
                <ele>50.606567</ele>
                <time>2006-07-29T08:46:35Z</time>
            </trkpt>
            <trkpt lon="99.215057" lat="14.069617">
                <ele>49.645264</ele>
                <time>2006-07-29T08:46:45Z</time>
            </trkpt>
            <trkpt lon="99.214708" lat="14.069287">
                <ele>49.645264</ele>
                <time>2006-07-29T08:47:00Z</time>
            </trkpt>
            <trkpt lon="99.214311" lat="14.068855">
                <ele>50.125977</ele>
                <time>2006-07-29T08:47:17Z</time>
            </trkpt>
            <trkpt lon="99.214314" lat="14.068832">
                <ele>50.125977</ele>
                <time>2006-07-29T08:47:18Z</time>
            </trkpt>
            <trkpt lon="99.214628" lat="14.068527">
                <ele>48.683960</ele>
                <time>2006-07-29T08:47:31Z</time>
            </trkpt>
            <trkpt lon="99.214665" lat="14.068387">
                <ele>48.203369</ele>
                <time>2006-07-29T08:47:37Z</time>
            </trkpt>
            <trkpt lon="99.214502" lat="14.068326">
                <ele>48.203369</ele>
                <time>2006-07-29T08:47:43Z</time>
            </trkpt>
            <trkpt lon="99.213800" lat="14.067983">
                <ele>48.683960</ele>
                <time>2006-07-29T08:48:01Z</time>
            </trkpt>
            <trkpt lon="99.213028" lat="14.067523">
                <ele>47.722534</ele>
                <time>2006-07-29T08:48:20Z</time>
            </trkpt>
            <trkpt lon="99.212401" lat="14.067243">
                <ele>49.164551</ele>
                <time>2006-07-29T08:48:35Z</time>
            </trkpt>
            <trkpt lon="99.211792" lat="14.066628">
                <ele>46.761230</ele>
                <time>2006-07-29T08:48:52Z</time>
            </trkpt>
            <trkpt lon="99.210968" lat="14.065926">
                <ele>48.203369</ele>
                <time>2006-07-29T08:49:12Z</time>
            </trkpt>
            <trkpt lon="99.210319" lat="14.065626">
                <ele>48.683960</ele>
                <time>2006-07-29T08:49:28Z</time>
            </trkpt>
            <trkpt lon="99.209544" lat="14.065178">
                <ele>47.241821</ele>
                <time>2006-07-29T08:49:48Z</time>
            </trkpt>
            <trkpt lon="99.209150" lat="14.064849">
                <ele>48.203369</ele>
                <time>2006-07-29T08:50:03Z</time>
            </trkpt>
            <trkpt lon="99.208782" lat="14.065061">
                <ele>48.203369</ele>
                <time>2006-07-29T08:50:16Z</time>
            </trkpt>
            <trkpt lon="99.208471" lat="14.065322">
                <ele>49.164551</ele>
                <time>2006-07-29T08:50:31Z</time>
            </trkpt>
            <trkpt lon="99.208438" lat="14.065355">
                <ele>50.125977</ele>
                <time>2006-07-29T08:50:44Z</time>
            </trkpt>
            <trkpt lon="99.208437" lat="14.065355">
                <ele>48.203369</ele>
                <time>2006-07-29T08:51:00Z</time>
            </trkpt>
            <trkpt lon="99.208379" lat="14.065393">
                <ele>47.722534</ele>
                <time>2006-07-29T08:51:05Z</time>
            </trkpt>
            <trkpt lon="99.208133" lat="14.065591">
                <ele>47.241821</ele>
                <time>2006-07-29T08:51:19Z</time>
            </trkpt>
            <trkpt lon="99.207750" lat="14.065885">
                <ele>47.722534</ele>
                <time>2006-07-29T08:51:36Z</time>
            </trkpt>
            <trkpt lon="99.207504" lat="14.066082">
                <ele>48.203369</ele>
                <time>2006-07-29T08:51:51Z</time>
            </trkpt>
            <trkpt lon="99.207517" lat="14.066070">
                <ele>50.606567</ele>
                <time>2006-07-29T08:52:19Z</time>
            </trkpt>
            <trkpt lon="99.207574" lat="14.066017">
                <ele>50.125977</ele>
                <time>2006-07-29T08:52:23Z</time>
            </trkpt>
            <trkpt lon="99.208028" lat="14.065682">
                <ele>50.125977</ele>
                <time>2006-07-29T08:52:40Z</time>
            </trkpt>
            <trkpt lon="99.208402" lat="14.065373">
                <ele>49.164551</ele>
                <time>2006-07-29T08:52:55Z</time>
            </trkpt>
            <trkpt lon="99.208704" lat="14.065133">
                <ele>49.645264</ele>
                <time>2006-07-29T08:53:10Z</time>
            </trkpt>
            <trkpt lon="99.208896" lat="14.064983">
                <ele>48.203369</ele>
                <time>2006-07-29T08:53:22Z</time>
            </trkpt>
            <trkpt lon="99.209104" lat="14.064848">
                <ele>49.645264</ele>
                <time>2006-07-29T08:53:34Z</time>
            </trkpt>
            <trkpt lon="99.209106" lat="14.064827">
                <ele>47.722534</ele>
                <time>2006-07-29T08:53:54Z</time>
            </trkpt>
            <trkpt lon="99.209088" lat="14.064788">
                <ele>47.722534</ele>
                <time>2006-07-29T08:54:09Z</time>
            </trkpt>
            <trkpt lon="99.209052" lat="14.064736">
                <ele>47.722534</ele>
                <time>2006-07-29T08:54:13Z</time>
            </trkpt>
            <trkpt lon="99.208745" lat="14.064477">
                <ele>48.203369</ele>
                <time>2006-07-29T08:54:29Z</time>
            </trkpt>
            <trkpt lon="99.208562" lat="14.064327">
                <ele>48.683960</ele>
                <time>2006-07-29T08:54:38Z</time>
            </trkpt>
            <trkpt lon="99.208588" lat="14.064324">
                <ele>49.164551</ele>
                <time>2006-07-29T08:54:49Z</time>
            </trkpt>
            <trkpt lon="99.208849" lat="14.064547">
                <ele>49.164551</ele>
                <time>2006-07-29T08:55:02Z</time>
            </trkpt>
            <trkpt lon="99.209143" lat="14.064805">
                <ele>48.203369</ele>
                <time>2006-07-29T08:55:15Z</time>
            </trkpt>
            <trkpt lon="99.209584" lat="14.065199">
                <ele>47.722534</ele>
                <time>2006-07-29T08:55:32Z</time>
            </trkpt>
            <trkpt lon="99.209820" lat="14.065373">
                <ele>47.722534</ele>
                <time>2006-07-29T08:55:41Z</time>
            </trkpt>
            <trkpt lon="99.209913" lat="14.065319">
                <ele>47.241821</ele>
                <time>2006-07-29T08:55:45Z</time>
            </trkpt>
            <trkpt lon="99.210331" lat="14.064997">
                <ele>48.683960</ele>
                <time>2006-07-29T08:56:04Z</time>
            </trkpt>
            <trkpt lon="99.210400" lat="14.064937">
                <ele>48.203369</ele>
                <time>2006-07-29T08:56:16Z</time>
            </trkpt>
            <trkpt lon="99.210543" lat="14.064814">
                <ele>48.683960</ele>
                <time>2006-07-29T08:56:30Z</time>
            </trkpt>
            <trkpt lon="99.210876" lat="14.064572">
                <ele>48.683960</ele>
                <time>2006-07-29T08:56:42Z</time>
            </trkpt>
            <trkpt lon="99.211082" lat="14.064408">
                <ele>48.683960</ele>
                <time>2006-07-29T08:56:49Z</time>
            </trkpt>
            <trkpt lon="99.211044" lat="14.064267">
                <ele>48.203369</ele>
                <time>2006-07-29T08:56:54Z</time>
            </trkpt>
            <trkpt lon="99.210653" lat="14.063871">
                <ele>46.761230</ele>
                <time>2006-07-29T08:57:09Z</time>
            </trkpt>
            <trkpt lon="99.210281" lat="14.063515">
                <ele>46.761230</ele>
                <time>2006-07-29T08:57:24Z</time>
            </trkpt>
            <trkpt lon="99.209718" lat="14.062982">
                <ele>47.241821</ele>
                <time>2006-07-29T08:57:44Z</time>
            </trkpt>
            <trkpt lon="99.209390" lat="14.062665">
                <ele>47.722534</ele>
                <time>2006-07-29T08:58:00Z</time>
            </trkpt>
            <trkpt lon="99.209296" lat="14.062577">
                <ele>47.241821</ele>
                <time>2006-07-29T08:58:13Z</time>
            </trkpt>
            <trkpt lon="99.209266" lat="14.062543">
                <ele>47.722534</ele>
                <time>2006-07-29T08:58:31Z</time>
            </trkpt>
            <trkpt lon="99.209264" lat="14.062539">
                <ele>46.761230</ele>
                <time>2006-07-29T08:59:24Z</time>
            </trkpt>
            <trkpt lon="99.209164" lat="14.062456">
                <ele>48.203369</ele>
                <time>2006-07-29T09:00:03Z</time>
            </trkpt>
            <trkpt lon="99.209120" lat="14.062413">
                <ele>47.241821</ele>
                <time>2006-07-29T09:00:15Z</time>
            </trkpt>
            <trkpt lon="99.208975" lat="14.062269">
                <ele>46.280640</ele>
                <time>2006-07-29T09:01:00Z</time>
            </trkpt>
            <trkpt lon="99.208865" lat="14.062147">
                <ele>46.761230</ele>
                <time>2006-07-29T09:01:13Z</time>
            </trkpt>
            <trkpt lon="99.208833" lat="14.062117">
                <ele>46.761230</ele>
                <time>2006-07-29T09:01:27Z</time>
            </trkpt>
            <trkpt lon="99.208766" lat="14.062039">
                <ele>48.683960</ele>
                <time>2006-07-29T09:01:40Z</time>
            </trkpt>
            <trkpt lon="99.208731" lat="14.061977">
                <ele>48.203369</ele>
                <time>2006-07-29T09:01:52Z</time>
            </trkpt>
            <trkpt lon="99.208691" lat="14.061898">
                <ele>48.683960</ele>
                <time>2006-07-29T09:02:10Z</time>
            </trkpt>
            <trkpt lon="99.208694" lat="14.061871">
                <ele>49.164551</ele>
                <time>2006-07-29T09:02:21Z</time>
            </trkpt>
            <trkpt lon="99.208713" lat="14.061842">
                <ele>49.645264</ele>
                <time>2006-07-29T09:02:25Z</time>
            </trkpt>
            <trkpt lon="99.208772" lat="14.061800">
                <ele>48.203369</ele>
                <time>2006-07-29T09:02:36Z</time>
            </trkpt>
            <trkpt lon="99.208836" lat="14.061845">
                <ele>48.683960</ele>
                <time>2006-07-29T09:02:51Z</time>
            </trkpt>
            <trkpt lon="99.208945" lat="14.061862">
                <ele>48.203369</ele>
                <time>2006-07-29T09:03:05Z</time>
            </trkpt>
            <trkpt lon="99.208986" lat="14.061873">
                <ele>48.203369</ele>
                <time>2006-07-29T09:03:09Z</time>
            </trkpt>
            <trkpt lon="99.209070" lat="14.061846">
                <ele>48.203369</ele>
                <time>2006-07-29T09:03:19Z</time>
            </trkpt>
            <trkpt lon="99.209161" lat="14.061780">
                <ele>49.645264</ele>
                <time>2006-07-29T09:03:25Z</time>
            </trkpt>
            <trkpt lon="99.209299" lat="14.061581">
                <ele>50.606567</ele>
                <time>2006-07-29T09:03:43Z</time>
            </trkpt>
            <trkpt lon="99.209370" lat="14.061539">
                <ele>52.048584</ele>
                <time>2006-07-29T09:03:54Z</time>
            </trkpt>
            <trkpt lon="99.209535" lat="14.061613">
                <ele>51.567871</ele>
                <time>2006-07-29T09:04:12Z</time>
            </trkpt>
            <trkpt lon="99.209589" lat="14.061599">
                <ele>49.645264</ele>
                <time>2006-07-29T09:04:23Z</time>
            </trkpt>
            <trkpt lon="99.209623" lat="14.061581">
                <ele>49.164551</ele>
                <time>2006-07-29T09:04:27Z</time>
            </trkpt>
            <trkpt lon="99.209654" lat="14.061508">
                <ele>47.722534</ele>
                <time>2006-07-29T09:04:36Z</time>
            </trkpt>
            <trkpt lon="99.209644" lat="14.061403">
                <ele>47.722534</ele>
                <time>2006-07-29T09:04:51Z</time>
            </trkpt>
            <trkpt lon="99.209905" lat="14.061136">
                <ele>48.203369</ele>
                <time>2006-07-29T09:05:08Z</time>
            </trkpt>
            <trkpt lon="99.210197" lat="14.060819">
                <ele>48.683960</ele>
                <time>2006-07-29T09:05:26Z</time>
            </trkpt>
            <trkpt lon="99.210269" lat="14.060751">
                <ele>48.683960</ele>
                <time>2006-07-29T09:05:30Z</time>
            </trkpt>
            <trkpt lon="99.210560" lat="14.060931">
                <ele>48.683960</ele>
                <time>2006-07-29T09:05:43Z</time>
            </trkpt>
            <trkpt lon="99.211242" lat="14.061444">
                <ele>48.683960</ele>
                <time>2006-07-29T09:06:04Z</time>
            </trkpt>
            <trkpt lon="99.212040" lat="14.062035">
                <ele>48.203369</ele>
                <time>2006-07-29T09:06:24Z</time>
            </trkpt>
            <trkpt lon="99.212709" lat="14.062510">
                <ele>46.280640</ele>
                <time>2006-07-29T09:06:39Z</time>
            </trkpt>
            <trkpt lon="99.212786" lat="14.062582">
                <ele>46.280640</ele>
                <time>2006-07-29T09:06:41Z</time>
            </trkpt>
            <trkpt lon="99.213593" lat="14.063150">
                <ele>45.799927</ele>
                <time>2006-07-29T09:07:01Z</time>
            </trkpt>
            <trkpt lon="99.213968" lat="14.063249">
                <ele>46.280640</ele>
                <time>2006-07-29T09:07:12Z</time>
            </trkpt>
            <trkpt lon="99.214474" lat="14.063095">
                <ele>47.722534</ele>
                <time>2006-07-29T09:07:26Z</time>
            </trkpt>
            <trkpt lon="99.214478" lat="14.062994">
                <ele>47.722534</ele>
                <time>2006-07-29T09:07:30Z</time>
            </trkpt>
            <trkpt lon="99.214293" lat="14.062229">
                <ele>47.722534</ele>
                <time>2006-07-29T09:07:48Z</time>
            </trkpt>
            <trkpt lon="99.214069" lat="14.061158">
                <ele>48.683960</ele>
                <time>2006-07-29T09:08:09Z</time>
            </trkpt>
            <trkpt lon="99.213790" lat="14.059924">
                <ele>49.164551</ele>
                <time>2006-07-29T09:08:32Z</time>
            </trkpt>
            <trkpt lon="99.213776" lat="14.059872">
                <ele>49.164551</ele>
                <time>2006-07-29T09:08:33Z</time>
            </trkpt>
            <trkpt lon="99.213508" lat="14.058602">
                <ele>49.164551</ele>
                <time>2006-07-29T09:08:57Z</time>
            </trkpt>
            <trkpt lon="99.213323" lat="14.057353">
                <ele>49.164551</ele>
                <time>2006-07-29T09:09:21Z</time>
            </trkpt>
            <trkpt lon="99.213182" lat="14.056002">
                <ele>48.683960</ele>
                <time>2006-07-29T09:09:46Z</time>
            </trkpt>
            <trkpt lon="99.213048" lat="14.054733">
                <ele>48.203369</ele>
                <time>2006-07-29T09:10:09Z</time>
            </trkpt>
            <trkpt lon="99.212934" lat="14.053647">
                <ele>49.164551</ele>
                <time>2006-07-29T09:10:30Z</time>
            </trkpt>
            <trkpt lon="99.212835" lat="14.052738">
                <ele>49.164551</ele>
                <time>2006-07-29T09:10:47Z</time>
            </trkpt>
            <trkpt lon="99.212686" lat="14.051341">
                <ele>49.645264</ele>
                <time>2006-07-29T09:11:13Z</time>
            </trkpt>
            <trkpt lon="99.212636" lat="14.051020">
                <ele>49.645264</ele>
                <time>2006-07-29T09:11:19Z</time>
            </trkpt>
            <trkpt lon="99.212417" lat="14.050716">
                <ele>49.164551</ele>
                <time>2006-07-29T09:11:26Z</time>
            </trkpt>
            <trkpt lon="99.211654" lat="14.050318">
                <ele>48.683960</ele>
                <time>2006-07-29T09:11:43Z</time>
            </trkpt>
            <trkpt lon="99.210599" lat="14.049807">
                <ele>47.241821</ele>
                <time>2006-07-29T09:12:04Z</time>
            </trkpt>
            <trkpt lon="99.210317" lat="14.049685">
                <ele>47.241821</ele>
                <time>2006-07-29T09:12:10Z</time>
            </trkpt>
            <trkpt lon="99.210222" lat="14.049438">
                <ele>47.722534</ele>
                <time>2006-07-29T09:12:16Z</time>
            </trkpt>
            <trkpt lon="99.210464" lat="14.048497">
                <ele>49.645264</ele>
                <time>2006-07-29T09:12:35Z</time>
            </trkpt>
            <trkpt lon="99.210502" lat="14.048338">
                <ele>49.164551</ele>
                <time>2006-07-29T09:12:39Z</time>
            </trkpt>
            <trkpt lon="99.210516" lat="14.048321">
                <ele>50.125977</ele>
                <time>2006-07-29T09:12:54Z</time>
            </trkpt>
            <trkpt lon="99.210528" lat="14.048278">
                <ele>51.087158</ele>
                <time>2006-07-29T09:14:26Z</time>
            </trkpt>
            <trkpt lon="99.210533" lat="14.048277">
                <ele>50.606567</ele>
                <time>2006-07-29T09:14:54Z</time>
            </trkpt>
            <trkpt lon="99.210531" lat="14.048284">
                <ele>51.087158</ele>
                <time>2006-07-29T09:27:28Z</time>
            </trkpt>
            <trkpt lon="99.210537" lat="14.048288">
                <ele>50.125977</ele>
                <time>2006-07-29T09:28:29Z</time>
            </trkpt>
            <trkpt lon="99.210543" lat="14.048286">
                <ele>50.125977</ele>
                <time>2006-07-29T09:29:40Z</time>
            </trkpt>
            <trkpt lon="99.210540" lat="14.048280">
                <ele>53.490479</ele>
                <time>2006-07-29T09:33:55Z</time>
            </trkpt>
            <trkpt lon="99.210517" lat="14.048291">
                <ele>51.087158</ele>
                <time>2006-07-29T09:34:48Z</time>
            </trkpt>
            <trkpt lon="99.210514" lat="14.048311">
                <ele>51.567871</ele>
                <time>2006-07-29T09:35:08Z</time>
            </trkpt>
            <trkpt lon="99.210506" lat="14.048310">
                <ele>51.087158</ele>
                <time>2006-07-29T09:35:14Z</time>
            </trkpt>
            <trkpt lon="99.210461" lat="14.048366">
                <ele>51.087158</ele>
                <time>2006-07-29T09:35:19Z</time>
            </trkpt>
            <trkpt lon="99.210318" lat="14.048943">
                <ele>51.567871</ele>
                <time>2006-07-29T09:35:36Z</time>
            </trkpt>
            <trkpt lon="99.210155" lat="14.049661">
                <ele>51.567871</ele>
                <time>2006-07-29T09:35:55Z</time>
            </trkpt>
            <trkpt lon="99.210034" lat="14.050102">
                <ele>52.529175</ele>
                <time>2006-07-29T09:36:09Z</time>
            </trkpt>
            <trkpt lon="99.209939" lat="14.050427">
                <ele>51.567871</ele>
                <time>2006-07-29T09:36:24Z</time>
            </trkpt>
            <trkpt lon="99.209788" lat="14.050978">
                <ele>52.529175</ele>
                <time>2006-07-29T09:36:42Z</time>
            </trkpt>
            <trkpt lon="99.209774" lat="14.051022">
                <ele>52.048584</ele>
                <time>2006-07-29T09:36:47Z</time>
            </trkpt>
            <trkpt lon="99.209815" lat="14.050947">
                <ele>52.048584</ele>
                <time>2006-07-29T09:36:53Z</time>
            </trkpt>
            <trkpt lon="99.209988" lat="14.050305">
                <ele>52.529175</ele>
                <time>2006-07-29T09:37:09Z</time>
            </trkpt>
            <trkpt lon="99.210200" lat="14.049403">
                <ele>51.567871</ele>
                <time>2006-07-29T09:37:31Z</time>
            </trkpt>
            <trkpt lon="99.210151" lat="14.049233">
                <ele>51.567871</ele>
                <time>2006-07-29T09:37:36Z</time>
            </trkpt>
            <trkpt lon="99.209666" lat="14.049006">
                <ele>51.567871</ele>
                <time>2006-07-29T09:37:50Z</time>
            </trkpt>
            <trkpt lon="99.209384" lat="14.048927">
                <ele>52.529175</ele>
                <time>2006-07-29T09:37:59Z</time>
            </trkpt>
            <trkpt lon="99.209003" lat="14.048812">
                <ele>53.490479</ele>
                <time>2006-07-29T09:38:11Z</time>
            </trkpt>
            <trkpt lon="99.208666" lat="14.048589">
                <ele>53.490479</ele>
                <time>2006-07-29T09:38:23Z</time>
            </trkpt>
            <trkpt lon="99.208512" lat="14.048480">
                <ele>52.048584</ele>
                <time>2006-07-29T09:38:29Z</time>
            </trkpt>
            <trkpt lon="99.208363" lat="14.048482">
                <ele>52.529175</ele>
                <time>2006-07-29T09:38:34Z</time>
            </trkpt>
            <trkpt lon="99.208036" lat="14.048460">
                <ele>53.009766</ele>
                <time>2006-07-29T09:38:45Z</time>
            </trkpt>
            <trkpt lon="99.207653" lat="14.048325">
                <ele>52.048584</ele>
                <time>2006-07-29T09:38:58Z</time>
            </trkpt>
            <trkpt lon="99.207227" lat="14.048212">
                <ele>53.490479</ele>
                <time>2006-07-29T09:39:12Z</time>
            </trkpt>
            <trkpt lon="99.206841" lat="14.048114">
                <ele>52.048584</ele>
                <time>2006-07-29T09:39:24Z</time>
            </trkpt>
            <trkpt lon="99.206417" lat="14.048154">
                <ele>52.529175</ele>
                <time>2006-07-29T09:39:36Z</time>
            </trkpt>
            <trkpt lon="99.205659" lat="14.048518">
                <ele>51.567871</ele>
                <time>2006-07-29T09:39:54Z</time>
            </trkpt>
            <trkpt lon="99.204753" lat="14.048691">
                <ele>51.087158</ele>
                <time>2006-07-29T09:40:12Z</time>
            </trkpt>
            <trkpt lon="99.203839" lat="14.048772">
                <ele>51.567871</ele>
                <time>2006-07-29T09:40:31Z</time>
            </trkpt>
            <trkpt lon="99.203545" lat="14.048792">
                <ele>52.048584</ele>
                <time>2006-07-29T09:40:38Z</time>
            </trkpt>
            <trkpt lon="99.203456" lat="14.048680">
                <ele>51.567871</ele>
                <time>2006-07-29T09:40:42Z</time>
            </trkpt>
            <trkpt lon="99.203141" lat="14.047682">
                <ele>49.164551</ele>
                <time>2006-07-29T09:41:03Z</time>
            </trkpt>
            <trkpt lon="99.202985" lat="14.047245">
                <ele>49.164551</ele>
                <time>2006-07-29T09:41:15Z</time>
            </trkpt>
            <trkpt lon="99.202947" lat="14.047097">
                <ele>48.683960</ele>
                <time>2006-07-29T09:41:19Z</time>
            </trkpt>
            <trkpt lon="99.202676" lat="14.046362">
                <ele>48.203369</ele>
                <time>2006-07-29T09:41:37Z</time>
            </trkpt>
            <trkpt lon="99.202623" lat="14.045899">
                <ele>46.280640</ele>
                <time>2006-07-29T09:41:52Z</time>
            </trkpt>
            <trkpt lon="99.202513" lat="14.045551">
                <ele>48.203369</ele>
                <time>2006-07-29T09:42:07Z</time>
            </trkpt>
            <trkpt lon="99.202459" lat="14.045438">
                <ele>49.645264</ele>
                <time>2006-07-29T09:42:12Z</time>
            </trkpt>
            <trkpt lon="99.202419" lat="14.045418">
                <ele>49.164551</ele>
                <time>2006-07-29T09:42:16Z</time>
            </trkpt>
            <trkpt lon="99.202130" lat="14.045389">
                <ele>49.164551</ele>
                <time>2006-07-29T09:42:29Z</time>
            </trkpt>
            <trkpt lon="99.202053" lat="14.045387">
                <ele>49.645264</ele>
                <time>2006-07-29T09:42:31Z</time>
            </trkpt>
            <trkpt lon="99.201674" lat="14.045226">
                <ele>49.164551</ele>
                <time>2006-07-29T09:42:40Z</time>
            </trkpt>
            <trkpt lon="99.200883" lat="14.044806">
                <ele>51.087158</ele>
                <time>2006-07-29T09:42:59Z</time>
            </trkpt>
            <trkpt lon="99.200365" lat="14.044592">
                <ele>53.009766</ele>
                <time>2006-07-29T09:43:16Z</time>
            </trkpt>
            <trkpt lon="99.199955" lat="14.045040">
                <ele>52.048584</ele>
                <time>2006-07-29T09:43:30Z</time>
            </trkpt>
            <trkpt lon="99.199843" lat="14.045169">
                <ele>52.048584</ele>
                <time>2006-07-29T09:43:34Z</time>
            </trkpt>
            <trkpt lon="99.199545" lat="14.045243">
                <ele>53.490479</ele>
                <time>2006-07-29T09:43:41Z</time>
            </trkpt>
            <trkpt lon="99.199357" lat="14.045219">
                <ele>53.490479</ele>
                <time>2006-07-29T09:43:45Z</time>
            </trkpt>
            <trkpt lon="99.199285" lat="14.045154">
                <ele>53.490479</ele>
                <time>2006-07-29T09:43:47Z</time>
            </trkpt>
            <trkpt lon="99.198807" lat="14.044775">
                <ele>53.490479</ele>
                <time>2006-07-29T09:44:02Z</time>
            </trkpt>
            <trkpt lon="99.198170" lat="14.044294">
                <ele>54.932373</ele>
                <time>2006-07-29T09:44:22Z</time>
            </trkpt>
            <trkpt lon="99.197759" lat="14.043990">
                <ele>55.893799</ele>
                <time>2006-07-29T09:44:38Z</time>
            </trkpt>
            <trkpt lon="99.197464" lat="14.043682">
                <ele>56.855103</ele>
                <time>2006-07-29T09:44:54Z</time>
            </trkpt>
            <trkpt lon="99.197372" lat="14.043210">
                <ele>56.855103</ele>
                <time>2006-07-29T09:45:11Z</time>
            </trkpt>
            <trkpt lon="99.197307" lat="14.042999">
                <ele>57.335815</ele>
                <time>2006-07-29T09:45:24Z</time>
            </trkpt>
            <trkpt lon="99.197298" lat="14.043009">
                <ele>56.855103</ele>
                <time>2006-07-29T09:45:27Z</time>
            </trkpt>
            <trkpt lon="99.197121" lat="14.043257">
                <ele>57.335815</ele>
                <time>2006-07-29T09:45:38Z</time>
            </trkpt>
            <trkpt lon="99.197095" lat="14.043273">
                <ele>57.816528</ele>
                <time>2006-07-29T09:45:39Z</time>
            </trkpt>
            <trkpt lon="99.196992" lat="14.043459">
                <ele>57.816528</ele>
                <time>2006-07-29T09:45:49Z</time>
            </trkpt>
            <trkpt lon="99.196864" lat="14.043726">
                <ele>59.258423</ele>
                <time>2006-07-29T09:46:02Z</time>
            </trkpt>
            <trkpt lon="99.196632" lat="14.044101">
                <ele>56.855103</ele>
                <time>2006-07-29T09:46:17Z</time>
            </trkpt>
            <trkpt lon="99.196593" lat="14.044133">
                <ele>60.219727</ele>
                <time>2006-07-29T09:46:35Z</time>
            </trkpt>
            <trkpt lon="99.196599" lat="14.044183">
                <ele>60.700317</ele>
                <time>2006-07-29T09:48:14Z</time>
            </trkpt>
            <trkpt lon="99.196584" lat="14.044233">
                <ele>60.219727</ele>
                <time>2006-07-29T09:48:18Z</time>
            </trkpt>
            <trkpt lon="99.196549" lat="14.044408">
                <ele>59.739136</ele>
                <time>2006-07-29T09:48:26Z</time>
            </trkpt>
            <trkpt lon="99.196634" lat="14.044717">
                <ele>59.258423</ele>
                <time>2006-07-29T09:48:38Z</time>
            </trkpt>
            <trkpt lon="99.196451" lat="14.044991">
                <ele>61.661743</ele>
                <time>2006-07-29T09:48:53Z</time>
            </trkpt>
            <trkpt lon="99.196270" lat="14.045045">
                <ele>60.700317</ele>
                <time>2006-07-29T09:49:00Z</time>
            </trkpt>
            <trkpt lon="99.196157" lat="14.045352">
                <ele>57.335815</ele>
                <time>2006-07-29T09:49:13Z</time>
            </trkpt>
            <trkpt lon="99.196088" lat="14.045563">
                <ele>56.855103</ele>
                <time>2006-07-29T09:49:19Z</time>
            </trkpt>
            <trkpt lon="99.195872" lat="14.045938">
                <ele>54.451782</ele>
                <time>2006-07-29T09:49:31Z</time>
            </trkpt>
            <trkpt lon="99.195621" lat="14.046153">
                <ele>54.451782</ele>
                <time>2006-07-29T09:49:42Z</time>
            </trkpt>
            <trkpt lon="99.195608" lat="14.046181">
                <ele>54.451782</ele>
                <time>2006-07-29T09:49:44Z</time>
            </trkpt>
            <trkpt lon="99.195544" lat="14.046214">
                <ele>54.451782</ele>
                <time>2006-07-29T09:49:49Z</time>
            </trkpt>
            <trkpt lon="99.195509" lat="14.046265">
                <ele>53.971191</ele>
                <time>2006-07-29T09:49:54Z</time>
            </trkpt>
            <trkpt lon="99.195431" lat="14.046173">
                <ele>53.971191</ele>
                <time>2006-07-29T09:50:02Z</time>
            </trkpt>
            <trkpt lon="99.195415" lat="14.045960">
                <ele>56.374512</ele>
                <time>2006-07-29T09:50:13Z</time>
            </trkpt>
            <trkpt lon="99.195352" lat="14.045871">
                <ele>56.374512</ele>
                <time>2006-07-29T09:50:18Z</time>
            </trkpt>
            <trkpt lon="99.195025" lat="14.045747">
                <ele>56.855103</ele>
                <time>2006-07-29T09:50:32Z</time>
            </trkpt>
            <trkpt lon="99.194632" lat="14.045745">
                <ele>57.816528</ele>
                <time>2006-07-29T09:50:45Z</time>
            </trkpt>
            <trkpt lon="99.194297" lat="14.045718">
                <ele>59.258423</ele>
                <time>2006-07-29T09:50:58Z</time>
            </trkpt>
            <trkpt lon="99.193977" lat="14.045610">
                <ele>60.219727</ele>
                <time>2006-07-29T09:51:12Z</time>
            </trkpt>
            <trkpt lon="99.193715" lat="14.045581">
                <ele>62.142334</ele>
                <time>2006-07-29T09:51:24Z</time>
            </trkpt>
            <trkpt lon="99.193497" lat="14.045451">
                <ele>62.622925</ele>
                <time>2006-07-29T09:51:36Z</time>
            </trkpt>
            <trkpt lon="99.193357" lat="14.045248">
                <ele>64.065063</ele>
                <time>2006-07-29T09:51:49Z</time>
            </trkpt>
            <trkpt lon="99.193339" lat="14.045238">
                <ele>63.584351</ele>
                <time>2006-07-29T09:52:05Z</time>
            </trkpt>
            <trkpt lon="99.193329" lat="14.045240">
                <ele>63.584351</ele>
                <time>2006-07-29T09:52:06Z</time>
            </trkpt>
            <trkpt lon="99.193280" lat="14.045242">
                <ele>62.622925</ele>
                <time>2006-07-29T09:52:10Z</time>
            </trkpt>
            <trkpt lon="99.193209" lat="14.045246">
                <ele>61.661743</ele>
                <time>2006-07-29T09:52:14Z</time>
            </trkpt>
            <trkpt lon="99.193024" lat="14.045332">
                <ele>63.103638</ele>
                <time>2006-07-29T09:52:29Z</time>
            </trkpt>
            <trkpt lon="99.192848" lat="14.045294">
                <ele>66.948975</ele>
                <time>2006-07-29T09:52:43Z</time>
            </trkpt>
            <trkpt lon="99.192620" lat="14.045275">
                <ele>69.352295</ele>
                <time>2006-07-29T09:52:59Z</time>
            </trkpt>
            <trkpt lon="99.192582" lat="14.045264">
                <ele>69.832886</ele>
                <time>2006-07-29T09:53:02Z</time>
            </trkpt>
            <trkpt lon="99.192519" lat="14.045280">
                <ele>68.871582</ele>
                <time>2006-07-29T09:53:07Z</time>
            </trkpt>
            <trkpt lon="99.192335" lat="14.045133">
                <ele>70.313477</ele>
                <time>2006-07-29T09:53:22Z</time>
            </trkpt>
            <trkpt lon="99.192107" lat="14.045119">
                <ele>73.197632</ele>
                <time>2006-07-29T09:53:37Z</time>
            </trkpt>
            <trkpt lon="99.191873" lat="14.045137">
                <ele>75.600830</ele>
                <time>2006-07-29T09:53:52Z</time>
            </trkpt>
            <trkpt lon="99.191633" lat="14.045019">
                <ele>76.081421</ele>
                <time>2006-07-29T09:54:07Z</time>
            </trkpt>
            <trkpt lon="99.191441" lat="14.044890">
                <ele>78.965454</ele>
                <time>2006-07-29T09:54:22Z</time>
            </trkpt>
            <trkpt lon="99.191174" lat="14.044774">
                <ele>78.004028</ele>
                <time>2006-07-29T09:54:39Z</time>
            </trkpt>
            <trkpt lon="99.191165" lat="14.044765">
                <ele>77.523438</ele>
                <time>2006-07-29T09:54:40Z</time>
            </trkpt>
            <trkpt lon="99.190994" lat="14.044648">
                <ele>79.446045</ele>
                <time>2006-07-29T09:54:54Z</time>
            </trkpt>
            <trkpt lon="99.190716" lat="14.044589">
                <ele>79.926636</ele>
                <time>2006-07-29T09:55:14Z</time>
            </trkpt>
            <trkpt lon="99.190481" lat="14.044829">
                <ele>79.926636</ele>
                <time>2006-07-29T09:55:30Z</time>
            </trkpt>
            <trkpt lon="99.190428" lat="14.045061">
                <ele>85.213989</ele>
                <time>2006-07-29T09:55:43Z</time>
            </trkpt>
            <trkpt lon="99.190379" lat="14.045152">
                <ele>88.098022</ele>
                <time>2006-07-29T09:55:59Z</time>
            </trkpt>
            <trkpt lon="99.190302" lat="14.045216">
                <ele>85.213989</ele>
                <time>2006-07-29T09:56:14Z</time>
            </trkpt>
            <trkpt lon="99.190289" lat="14.045232">
                <ele>85.694580</ele>
                <time>2006-07-29T09:56:16Z</time>
            </trkpt>
            <trkpt lon="99.190275" lat="14.045298">
                <ele>86.656006</ele>
                <time>2006-07-29T09:56:22Z</time>
            </trkpt>
            <trkpt lon="99.190113" lat="14.045461">
                <ele>92.423950</ele>
                <time>2006-07-29T09:56:43Z</time>
            </trkpt>
            <trkpt lon="99.190032" lat="14.045590">
                <ele>95.307739</ele>
                <time>2006-07-29T09:57:01Z</time>
            </trkpt>
            <trkpt lon="99.189989" lat="14.045666">
                <ele>96.269287</ele>
                <time>2006-07-29T09:57:07Z</time>
            </trkpt>
            <trkpt lon="99.189673" lat="14.045818">
                <ele>92.423950</ele>
                <time>2006-07-29T09:57:24Z</time>
            </trkpt>
            <trkpt lon="99.189601" lat="14.045871">
                <ele>92.904541</ele>
                <time>2006-07-29T09:57:28Z</time>
            </trkpt>
            <trkpt lon="99.189451" lat="14.046167">
                <ele>89.059326</ele>
                <time>2006-07-29T09:57:43Z</time>
            </trkpt>
            <trkpt lon="99.189414" lat="14.046213">
                <ele>90.020630</ele>
                <time>2006-07-29T09:57:46Z</time>
            </trkpt>
            <trkpt lon="99.189252" lat="14.046317">
                <ele>86.656006</ele>
                <time>2006-07-29T09:58:02Z</time>
            </trkpt>
            <trkpt lon="99.189222" lat="14.046348">
                <ele>86.656006</ele>
                <time>2006-07-29T09:58:05Z</time>
            </trkpt>
            <trkpt lon="99.189138" lat="14.046397">
                <ele>89.539917</ele>
                <time>2006-07-29T09:58:16Z</time>
            </trkpt>
            <trkpt lon="99.189091" lat="14.046452">
                <ele>87.617188</ele>
                <time>2006-07-29T09:58:21Z</time>
            </trkpt>
            <trkpt lon="99.189051" lat="14.046519">
                <ele>87.617188</ele>
                <time>2006-07-29T09:58:34Z</time>
            </trkpt>
            <trkpt lon="99.189046" lat="14.046500">
                <ele>87.617188</ele>
                <time>2006-07-29T09:59:08Z</time>
            </trkpt>
            <trkpt lon="99.189077" lat="14.046456">
                <ele>86.656006</ele>
                <time>2006-07-29T09:59:17Z</time>
            </trkpt>
            <trkpt lon="99.189158" lat="14.046332">
                <ele>84.733398</ele>
                <time>2006-07-29T09:59:34Z</time>
            </trkpt>
            <trkpt lon="99.189158" lat="14.046329">
                <ele>90.501343</ele>
                <time>2006-07-29T09:59:58Z</time>
            </trkpt>
            <trkpt lon="99.189157" lat="14.046351">
                <ele>90.501343</ele>
                <time>2006-07-29T10:00:01Z</time>
            </trkpt>
            <trkpt lon="99.188999" lat="14.046486">
                <ele>88.578735</ele>
                <time>2006-07-29T10:00:20Z</time>
            </trkpt>
            <trkpt lon="99.188831" lat="14.046574">
                <ele>88.578735</ele>
                <time>2006-07-29T10:00:40Z</time>
            </trkpt>
            <trkpt lon="99.188739" lat="14.046588">
                <ele>78.965454</ele>
                <time>2006-07-29T10:01:13Z</time>
            </trkpt>
            <trkpt lon="99.188619" lat="14.046714">
                <ele>82.810791</ele>
                <time>2006-07-29T10:01:29Z</time>
            </trkpt>
            <trkpt lon="99.188512" lat="14.046912">
                <ele>83.291382</ele>
                <time>2006-07-29T10:01:43Z</time>
            </trkpt>
            <trkpt lon="99.188244" lat="14.047044">
                <ele>81.849365</ele>
                <time>2006-07-29T10:02:03Z</time>
            </trkpt>
            <trkpt lon="99.188243" lat="14.047046">
                <ele>83.291382</ele>
                <time>2006-07-29T10:02:07Z</time>
            </trkpt>
            <trkpt lon="99.188092" lat="14.047024">
                <ele>80.407471</ele>
                <time>2006-07-29T10:02:20Z</time>
            </trkpt>
            <trkpt lon="99.188069" lat="14.047033">
                <ele>80.407471</ele>
                <time>2006-07-29T10:02:23Z</time>
            </trkpt>
            <trkpt lon="99.188051" lat="14.047064">
                <ele>79.926636</ele>
                <time>2006-07-29T10:02:33Z</time>
            </trkpt>
            <trkpt lon="99.188026" lat="14.047170">
                <ele>78.484741</ele>
                <time>2006-07-29T10:02:43Z</time>
            </trkpt>
            <trkpt lon="99.187991" lat="14.047243">
                <ele>79.926636</ele>
                <time>2006-07-29T10:02:48Z</time>
            </trkpt>
            <trkpt lon="99.188070" lat="14.047638">
                <ele>80.888184</ele>
                <time>2006-07-29T10:03:05Z</time>
            </trkpt>
            <trkpt lon="99.188143" lat="14.047955">
                <ele>80.888184</ele>
                <time>2006-07-29T10:03:20Z</time>
            </trkpt>
            <trkpt lon="99.188213" lat="14.048205">
                <ele>79.926636</ele>
                <time>2006-07-29T10:03:35Z</time>
            </trkpt>
            <trkpt lon="99.188531" lat="14.048388">
                <ele>74.639526</ele>
                <time>2006-07-29T10:03:48Z</time>
            </trkpt>
            <trkpt lon="99.188680" lat="14.048454">
                <ele>73.197632</ele>
                <time>2006-07-29T10:03:54Z</time>
            </trkpt>
            <trkpt lon="99.189145" lat="14.048721">
                <ele>70.794189</ele>
                <time>2006-07-29T10:04:14Z</time>
            </trkpt>
            <trkpt lon="99.189483" lat="14.048835">
                <ele>65.987671</ele>
                <time>2006-07-29T10:04:27Z</time>
            </trkpt>
            <trkpt lon="99.189975" lat="14.049058">
                <ele>61.181030</ele>
                <time>2006-07-29T10:04:47Z</time>
            </trkpt>
            <trkpt lon="99.190161" lat="14.049214">
                <ele>62.622925</ele>
                <time>2006-07-29T10:05:00Z</time>
            </trkpt>
            <trkpt lon="99.190168" lat="14.049287">
                <ele>63.584351</ele>
                <time>2006-07-29T10:05:12Z</time>
            </trkpt>
            <trkpt lon="99.190235" lat="14.049279">
                <ele>62.622925</ele>
                <time>2006-07-29T10:06:24Z</time>
            </trkpt>
            <trkpt lon="99.190244" lat="14.049342">
                <ele>62.142334</ele>
                <time>2006-07-29T10:06:28Z</time>
            </trkpt>
            <trkpt lon="99.190218" lat="14.049469">
                <ele>61.181030</ele>
                <time>2006-07-29T10:06:34Z</time>
            </trkpt>
            <trkpt lon="99.190254" lat="14.049588">
                <ele>59.739136</ele>
                <time>2006-07-29T10:06:39Z</time>
            </trkpt>
            <trkpt lon="99.190142" lat="14.049970">
                <ele>57.335815</ele>
                <time>2006-07-29T10:06:53Z</time>
            </trkpt>
            <trkpt lon="99.189983" lat="14.050203">
                <ele>55.893799</ele>
                <time>2006-07-29T10:07:03Z</time>
            </trkpt>
            <trkpt lon="99.189807" lat="14.050245">
                <ele>55.413086</ele>
                <time>2006-07-29T10:07:12Z</time>
            </trkpt>
            <trkpt lon="99.189803" lat="14.050278">
                <ele>55.413086</ele>
                <time>2006-07-29T10:07:13Z</time>
            </trkpt>
            <trkpt lon="99.189925" lat="14.050674">
                <ele>55.413086</ele>
                <time>2006-07-29T10:07:26Z</time>
            </trkpt>
            <trkpt lon="99.189918" lat="14.050710">
                <ele>55.413086</ele>
                <time>2006-07-29T10:07:29Z</time>
            </trkpt>
            <trkpt lon="99.189941" lat="14.050790">
                <ele>54.932373</ele>
                <time>2006-07-29T10:07:34Z</time>
            </trkpt>
            <trkpt lon="99.189790" lat="14.050859">
                <ele>53.971191</ele>
                <time>2006-07-29T10:07:43Z</time>
            </trkpt>
            <trkpt lon="99.189716" lat="14.050886">
                <ele>53.009766</ele>
                <time>2006-07-29T10:07:46Z</time>
            </trkpt>
            <trkpt lon="99.189702" lat="14.051079">
                <ele>52.529175</ele>
                <time>2006-07-29T10:07:53Z</time>
            </trkpt>
            <trkpt lon="99.189472" lat="14.051108">
                <ele>52.048584</ele>
                <time>2006-07-29T10:07:59Z</time>
            </trkpt>
            <trkpt lon="99.188709" lat="14.051218">
                <ele>51.087158</ele>
                <time>2006-07-29T10:08:17Z</time>
            </trkpt>
            <trkpt lon="99.187996" lat="14.051413">
                <ele>49.645264</ele>
                <time>2006-07-29T10:08:32Z</time>
            </trkpt>
            <trkpt lon="99.187273" lat="14.051972">
                <ele>49.645264</ele>
                <time>2006-07-29T10:08:50Z</time>
            </trkpt>
            <trkpt lon="99.186454" lat="14.052705">
                <ele>50.125977</ele>
                <time>2006-07-29T10:09:11Z</time>
            </trkpt>
            <trkpt lon="99.185695" lat="14.053324">
                <ele>51.567871</ele>
                <time>2006-07-29T10:09:28Z</time>
            </trkpt>
            <trkpt lon="99.184890" lat="14.053893">
                <ele>53.009766</ele>
                <time>2006-07-29T10:09:48Z</time>
            </trkpt>
            <trkpt lon="99.183993" lat="14.054527">
                <ele>52.048584</ele>
                <time>2006-07-29T10:10:08Z</time>
            </trkpt>
            <trkpt lon="99.183330" lat="14.055002">
                <ele>51.567871</ele>
                <time>2006-07-29T10:10:23Z</time>
            </trkpt>
            <trkpt lon="99.182393" lat="14.055648">
                <ele>51.087158</ele>
                <time>2006-07-29T10:10:45Z</time>
            </trkpt>
            <trkpt lon="99.181872" lat="14.056011">
                <ele>52.048584</ele>
                <time>2006-07-29T10:11:01Z</time>
            </trkpt>
            <trkpt lon="99.181142" lat="14.056536">
                <ele>50.125977</ele>
                <time>2006-07-29T10:11:21Z</time>
            </trkpt>
            <trkpt lon="99.180784" lat="14.056787">
                <ele>51.567871</ele>
                <time>2006-07-29T10:11:35Z</time>
            </trkpt>
            <trkpt lon="99.180773" lat="14.056780">
                <ele>52.529175</ele>
                <time>2006-07-29T10:11:49Z</time>
            </trkpt>
            <trkpt lon="99.180781" lat="14.056717">
                <ele>52.529175</ele>
                <time>2006-07-29T10:11:53Z</time>
            </trkpt>
            <trkpt lon="99.180851" lat="14.056518">
                <ele>52.529175</ele>
                <time>2006-07-29T10:12:01Z</time>
            </trkpt>
            <trkpt lon="99.180683" lat="14.056355">
                <ele>54.932373</ele>
                <time>2006-07-29T10:12:17Z</time>
            </trkpt>
            <trkpt lon="99.180659" lat="14.056339">
                <ele>55.413086</ele>
                <time>2006-07-29T10:12:19Z</time>
            </trkpt>
            <trkpt lon="99.180621" lat="14.056071">
                <ele>57.816528</ele>
                <time>2006-07-29T10:12:36Z</time>
            </trkpt>
            <trkpt lon="99.180551" lat="14.056019">
                <ele>58.777710</ele>
                <time>2006-07-29T10:12:43Z</time>
            </trkpt>
            <trkpt lon="99.180412" lat="14.055906">
                <ele>59.258423</ele>
                <time>2006-07-29T10:12:56Z</time>
            </trkpt>
            <trkpt lon="99.180243" lat="14.055773">
                <ele>60.219727</ele>
                <time>2006-07-29T10:13:09Z</time>
            </trkpt>
            <trkpt lon="99.180092" lat="14.055596">
                <ele>62.142334</ele>
                <time>2006-07-29T10:13:23Z</time>
            </trkpt>
            <trkpt lon="99.180071" lat="14.055273">
                <ele>63.103638</ele>
                <time>2006-07-29T10:13:43Z</time>
            </trkpt>
            <trkpt lon="99.180014" lat="14.055163">
                <ele>64.065063</ele>
                <time>2006-07-29T10:13:52Z</time>
            </trkpt>
            <trkpt lon="99.180046" lat="14.054976">
                <ele>66.948975</ele>
                <time>2006-07-29T10:14:06Z</time>
            </trkpt>
            <trkpt lon="99.180031" lat="14.054821">
                <ele>69.832886</ele>
                <time>2006-07-29T10:14:16Z</time>
            </trkpt>
            <trkpt lon="99.180005" lat="14.054791">
                <ele>70.794189</ele>
                <time>2006-07-29T10:14:19Z</time>
            </trkpt>
            <trkpt lon="99.179954" lat="14.054768">
                <ele>71.274902</ele>
                <time>2006-07-29T10:14:23Z</time>
            </trkpt>
            <trkpt lon="99.179869" lat="14.054846">
                <ele>72.716919</ele>
                <time>2006-07-29T10:14:30Z</time>
            </trkpt>
            <trkpt lon="99.179598" lat="14.055243">
                <ele>78.484741</ele>
                <time>2006-07-29T10:14:49Z</time>
            </trkpt>
            <trkpt lon="99.179319" lat="14.055594">
                <ele>78.004028</ele>
                <time>2006-07-29T10:15:06Z</time>
            </trkpt>
            <trkpt lon="99.179058" lat="14.056051">
                <ele>80.888184</ele>
                <time>2006-07-29T10:15:25Z</time>
            </trkpt>
            <trkpt lon="99.178624" lat="14.056638">
                <ele>79.926636</ele>
                <time>2006-07-29T10:15:46Z</time>
            </trkpt>
            <trkpt lon="99.178515" lat="14.056680">
                <ele>77.523438</ele>
                <time>2006-07-29T10:15:57Z</time>
            </trkpt>
            <trkpt lon="99.178235" lat="14.056811">
                <ele>74.158813</ele>
                <time>2006-07-29T10:16:13Z</time>
            </trkpt>
            <trkpt lon="99.177631" lat="14.057029">
                <ele>71.755493</ele>
                <time>2006-07-29T10:16:34Z</time>
            </trkpt>
            <trkpt lon="99.177045" lat="14.057244">
                <ele>67.910278</ele>
                <time>2006-07-29T10:16:54Z</time>
            </trkpt>
            <trkpt lon="99.176610" lat="14.057353">
                <ele>66.948975</ele>
                <time>2006-07-29T10:17:12Z</time>
            </trkpt>
            <trkpt lon="99.176092" lat="14.057619">
                <ele>65.987671</ele>
                <time>2006-07-29T10:17:31Z</time>
            </trkpt>
            <trkpt lon="99.175352" lat="14.057770">
                <ele>64.065063</ele>
                <time>2006-07-29T10:17:53Z</time>
            </trkpt>
            <trkpt lon="99.175065" lat="14.057657">
                <ele>65.026367</ele>
                <time>2006-07-29T10:18:06Z</time>
            </trkpt>
            <trkpt lon="99.174871" lat="14.057322">
                <ele>64.065063</ele>
                <time>2006-07-29T10:18:23Z</time>
            </trkpt>
            <trkpt lon="99.174901" lat="14.056857">
                <ele>65.026367</ele>
                <time>2006-07-29T10:18:42Z</time>
            </trkpt>
            <trkpt lon="99.175013" lat="14.056334">
                <ele>65.507080</ele>
                <time>2006-07-29T10:18:59Z</time>
            </trkpt>
            <trkpt lon="99.175119" lat="14.055802">
                <ele>67.429688</ele>
                <time>2006-07-29T10:19:17Z</time>
            </trkpt>
            <trkpt lon="99.174983" lat="14.055289">
                <ele>70.794189</ele>
                <time>2006-07-29T10:19:32Z</time>
            </trkpt>
            <trkpt lon="99.174684" lat="14.054579">
                <ele>70.313477</ele>
                <time>2006-07-29T10:19:56Z</time>
            </trkpt>
            <trkpt lon="99.174489" lat="14.054400">
                <ele>69.832886</ele>
                <time>2006-07-29T10:20:07Z</time>
            </trkpt>
            <trkpt lon="99.174434" lat="14.054298">
                <ele>71.755493</ele>
                <time>2006-07-29T10:20:24Z</time>
            </trkpt>
            <trkpt lon="99.174413" lat="14.054266">
                <ele>72.236206</ele>
                <time>2006-07-29T10:20:29Z</time>
            </trkpt>
            <trkpt lon="99.174224" lat="14.054053">
                <ele>71.755493</ele>
                <time>2006-07-29T10:20:44Z</time>
            </trkpt>
            <trkpt lon="99.174145" lat="14.053983">
                <ele>71.755493</ele>
                <time>2006-07-29T10:20:59Z</time>
            </trkpt>
            <trkpt lon="99.174138" lat="14.053998">
                <ele>72.716919</ele>
                <time>2006-07-29T10:21:05Z</time>
            </trkpt>
            <trkpt lon="99.174315" lat="14.054100">
                <ele>71.274902</ele>
                <time>2006-07-29T10:21:17Z</time>
            </trkpt>
            <trkpt lon="99.174342" lat="14.053986">
                <ele>71.274902</ele>
                <time>2006-07-29T10:21:22Z</time>
            </trkpt>
            <trkpt lon="99.174313" lat="14.053538">
                <ele>71.274902</ele>
                <time>2006-07-29T10:21:38Z</time>
            </trkpt>
            <trkpt lon="99.174388" lat="14.052879">
                <ele>68.871582</ele>
                <time>2006-07-29T10:21:58Z</time>
            </trkpt>
            <trkpt lon="99.174540" lat="14.052386">
                <ele>69.352295</ele>
                <time>2006-07-29T10:22:14Z</time>
            </trkpt>
            <trkpt lon="99.174530" lat="14.051823">
                <ele>69.352295</ele>
                <time>2006-07-29T10:22:31Z</time>
            </trkpt>
            <trkpt lon="99.174774" lat="14.051562">
                <ele>69.832886</ele>
                <time>2006-07-29T10:22:44Z</time>
            </trkpt>
            <trkpt lon="99.174920" lat="14.051113">
                <ele>71.755493</ele>
                <time>2006-07-29T10:22:59Z</time>
            </trkpt>
            <trkpt lon="99.175094" lat="14.050836">
                <ele>71.274902</ele>
                <time>2006-07-29T10:23:12Z</time>
            </trkpt>
            <trkpt lon="99.175110" lat="14.050823">
                <ele>72.236206</ele>
                <time>2006-07-29T10:23:14Z</time>
            </trkpt>
            <trkpt lon="99.175151" lat="14.050779">
                <ele>71.755493</ele>
                <time>2006-07-29T10:23:19Z</time>
            </trkpt>
            <trkpt lon="99.175150" lat="14.050788">
                <ele>72.716919</ele>
                <time>2006-07-29T10:23:30Z</time>
            </trkpt>
            <trkpt lon="99.175064" lat="14.050857">
                <ele>73.197632</ele>
                <time>2006-07-29T10:23:36Z</time>
            </trkpt>
            <trkpt lon="99.175002" lat="14.050930">
                <ele>73.678223</ele>
                <time>2006-07-29T10:23:41Z</time>
            </trkpt>
            <trkpt lon="99.174926" lat="14.050941">
                <ele>73.678223</ele>
                <time>2006-07-29T10:23:46Z</time>
            </trkpt>
            <trkpt lon="99.174871" lat="14.050814">
                <ele>75.120239</ele>
                <time>2006-07-29T10:24:00Z</time>
            </trkpt>
            <trkpt lon="99.174874" lat="14.050864">
                <ele>75.600830</ele>
                <time>2006-07-29T10:24:41Z</time>
            </trkpt>
            <trkpt lon="99.174907" lat="14.050969">
                <ele>75.120239</ele>
                <time>2006-07-29T10:24:52Z</time>
            </trkpt>
            <trkpt lon="99.174923" lat="14.051020">
                <ele>74.639526</ele>
                <time>2006-07-29T10:24:58Z</time>
            </trkpt>
            <trkpt lon="99.174900" lat="14.051186">
                <ele>74.158813</ele>
                <time>2006-07-29T10:25:07Z</time>
            </trkpt>
            <trkpt lon="99.174833" lat="14.051548">
                <ele>73.197632</ele>
                <time>2006-07-29T10:25:22Z</time>
            </trkpt>
            <trkpt lon="99.174833" lat="14.051594">
                <ele>72.716919</ele>
                <time>2006-07-29T10:25:24Z</time>
            </trkpt>
            <trkpt lon="99.174636" lat="14.051766">
                <ele>70.794189</ele>
                <time>2006-07-29T10:25:37Z</time>
            </trkpt>
            <trkpt lon="99.174526" lat="14.051820">
                <ele>70.313477</ele>
                <time>2006-07-29T10:25:48Z</time>
            </trkpt>
            <trkpt lon="99.174509" lat="14.051878">
                <ele>70.794189</ele>
                <time>2006-07-29T10:25:52Z</time>
            </trkpt>
            <trkpt lon="99.174520" lat="14.052006">
                <ele>70.794189</ele>
                <time>2006-07-29T10:25:58Z</time>
            </trkpt>
            <trkpt lon="99.174577" lat="14.052438">
                <ele>70.794189</ele>
                <time>2006-07-29T10:26:15Z</time>
            </trkpt>
            <trkpt lon="99.174459" lat="14.052899">
                <ele>67.910278</ele>
                <time>2006-07-29T10:26:30Z</time>
            </trkpt>
            <trkpt lon="99.174090" lat="14.053516">
                <ele>70.313477</ele>
                <time>2006-07-29T10:27:02Z</time>
            </trkpt>
            <trkpt lon="99.173802" lat="14.053544">
                <ele>72.236206</ele>
                <time>2006-07-29T10:27:14Z</time>
            </trkpt>
            <trkpt lon="99.173479" lat="14.053708">
                <ele>71.755493</ele>
                <time>2006-07-29T10:27:29Z</time>
            </trkpt>
            <trkpt lon="99.173230" lat="14.053887">
                <ele>70.794189</ele>
                <time>2006-07-29T10:27:40Z</time>
            </trkpt>
            <trkpt lon="99.172745" lat="14.054218">
                <ele>69.832886</ele>
                <time>2006-07-29T10:27:59Z</time>
            </trkpt>
            <trkpt lon="99.172129" lat="14.054607">
                <ele>67.910278</ele>
                <time>2006-07-29T10:28:20Z</time>
            </trkpt>
            <trkpt lon="99.171591" lat="14.054807">
                <ele>65.987671</ele>
                <time>2006-07-29T10:28:38Z</time>
            </trkpt>
            <trkpt lon="99.170915" lat="14.054903">
                <ele>68.871582</ele>
                <time>2006-07-29T10:28:59Z</time>
            </trkpt>
            <trkpt lon="99.170843" lat="14.054926">
                <ele>68.871582</ele>
                <time>2006-07-29T10:29:09Z</time>
            </trkpt>
            <trkpt lon="99.170843" lat="14.054928">
                <ele>68.871582</ele>
                <time>2006-07-29T10:29:12Z</time>
            </trkpt>
            <trkpt lon="99.170460" lat="14.055143">
                <ele>69.832886</ele>
                <time>2006-07-29T10:29:26Z</time>
            </trkpt>
            <trkpt lon="99.169959" lat="14.055541">
                <ele>72.236206</ele>
                <time>2006-07-29T10:29:44Z</time>
            </trkpt>
            <trkpt lon="99.169439" lat="14.055766">
                <ele>71.274902</ele>
                <time>2006-07-29T10:29:59Z</time>
            </trkpt>
            <trkpt lon="99.169057" lat="14.055925">
                <ele>72.716919</ele>
                <time>2006-07-29T10:30:10Z</time>
            </trkpt>
            <trkpt lon="99.168895" lat="14.055850">
                <ele>72.716919</ele>
                <time>2006-07-29T10:30:16Z</time>
            </trkpt>
            <trkpt lon="99.168478" lat="14.055957">
                <ele>73.197632</ele>
                <time>2006-07-29T10:30:31Z</time>
            </trkpt>
            <trkpt lon="99.167968" lat="14.056156">
                <ele>74.158813</ele>
                <time>2006-07-29T10:30:50Z</time>
            </trkpt>
            <trkpt lon="99.167670" lat="14.056113">
                <ele>74.639526</ele>
                <time>2006-07-29T10:31:04Z</time>
            </trkpt>
            <trkpt lon="99.167278" lat="14.055853">
                <ele>74.639526</ele>
                <time>2006-07-29T10:31:21Z</time>
            </trkpt>
            <trkpt lon="99.166753" lat="14.055622">
                <ele>75.120239</ele>
                <time>2006-07-29T10:31:40Z</time>
            </trkpt>
            <trkpt lon="99.166264" lat="14.055277">
                <ele>77.523438</ele>
                <time>2006-07-29T10:31:58Z</time>
            </trkpt>
            <trkpt lon="99.165806" lat="14.054849">
                <ele>77.523438</ele>
                <time>2006-07-29T10:32:14Z</time>
            </trkpt>
            <trkpt lon="99.165371" lat="14.054399">
                <ele>78.004028</ele>
                <time>2006-07-29T10:32:30Z</time>
            </trkpt>
            <trkpt lon="99.164792" lat="14.054249">
                <ele>75.600830</ele>
                <time>2006-07-29T10:32:47Z</time>
            </trkpt>
            <trkpt lon="99.164398" lat="14.054048">
                <ele>75.600830</ele>
                <time>2006-07-29T10:33:01Z</time>
            </trkpt>
            <trkpt lon="99.163995" lat="14.053846">
                <ele>73.197632</ele>
                <time>2006-07-29T10:33:16Z</time>
            </trkpt>
            <trkpt lon="99.163694" lat="14.053373">
                <ele>71.755493</ele>
                <time>2006-07-29T10:33:32Z</time>
            </trkpt>
            <trkpt lon="99.163471" lat="14.052978">
                <ele>69.832886</ele>
                <time>2006-07-29T10:33:45Z</time>
            </trkpt>
            <trkpt lon="99.163175" lat="14.052656">
                <ele>69.352295</ele>
                <time>2006-07-29T10:33:58Z</time>
            </trkpt>
            <trkpt lon="99.162875" lat="14.052393">
                <ele>68.390869</ele>
                <time>2006-07-29T10:34:10Z</time>
            </trkpt>
            <trkpt lon="99.162806" lat="14.052380">
                <ele>68.390869</ele>
                <time>2006-07-29T10:34:12Z</time>
            </trkpt>
            <trkpt lon="99.162655" lat="14.052247">
                <ele>69.352295</ele>
                <time>2006-07-29T10:34:21Z</time>
            </trkpt>
            <trkpt lon="99.161982" lat="14.052134">
                <ele>66.948975</ele>
                <time>2006-07-29T10:34:42Z</time>
            </trkpt>
            <trkpt lon="99.161515" lat="14.051961">
                <ele>64.545654</ele>
                <time>2006-07-29T10:34:57Z</time>
            </trkpt>
            <trkpt lon="99.161250" lat="14.051841">
                <ele>64.545654</ele>
                <time>2006-07-29T10:35:07Z</time>
            </trkpt>
            <trkpt lon="99.161210" lat="14.051833">
                <ele>65.987671</ele>
                <time>2006-07-29T10:35:17Z</time>
            </trkpt>
            <trkpt lon="99.161187" lat="14.051838">
                <ele>67.429688</ele>
                <time>2006-07-29T10:35:57Z</time>
            </trkpt>
            <trkpt lon="99.161180" lat="14.051786">
                <ele>68.871582</ele>
                <time>2006-07-29T10:38:29Z</time>
            </trkpt>
            <trkpt lon="99.161004" lat="14.051793">
                <ele>68.390869</ele>
                <time>2006-07-29T10:38:39Z</time>
            </trkpt>
            <trkpt lon="99.160676" lat="14.052238">
                <ele>68.871582</ele>
                <time>2006-07-29T10:38:55Z</time>
            </trkpt>
            <trkpt lon="99.160664" lat="14.052410">
                <ele>68.871582</ele>
                <time>2006-07-29T10:39:00Z</time>
            </trkpt>
            <trkpt lon="99.160668" lat="14.052915">
                <ele>67.910278</ele>
                <time>2006-07-29T10:39:16Z</time>
            </trkpt>
            <trkpt lon="99.160907" lat="14.053275">
                <ele>68.390869</ele>
                <time>2006-07-29T10:39:31Z</time>
            </trkpt>
            <trkpt lon="99.160957" lat="14.053343">
                <ele>68.390869</ele>
                <time>2006-07-29T10:39:33Z</time>
            </trkpt>
            <trkpt lon="99.161076" lat="14.053876">
                <ele>68.390869</ele>
                <time>2006-07-29T10:39:46Z</time>
            </trkpt>
            <trkpt lon="99.161154" lat="14.054250">
                <ele>68.390869</ele>
                <time>2006-07-29T10:39:57Z</time>
            </trkpt>
            <trkpt lon="99.161124" lat="14.054479">
                <ele>68.390869</ele>
                <time>2006-07-29T10:40:02Z</time>
            </trkpt>
            <trkpt lon="99.161030" lat="14.055481">
                <ele>65.987671</ele>
                <time>2006-07-29T10:40:24Z</time>
            </trkpt>
            <trkpt lon="99.160899" lat="14.055861">
                <ele>67.429688</ele>
                <time>2006-07-29T10:40:35Z</time>
            </trkpt>
            <trkpt lon="99.160924" lat="14.055792">
                <ele>70.794189</ele>
                <time>2006-07-29T10:41:03Z</time>
            </trkpt>
            <trkpt lon="99.160905" lat="14.055737">
                <ele>72.236206</ele>
                <time>2006-07-29T10:42:04Z</time>
            </trkpt>
            <trkpt lon="99.160885" lat="14.055746">
                <ele>71.274902</ele>
                <time>2006-07-29T10:43:19Z</time>
            </trkpt>
            <trkpt lon="99.160879" lat="14.055796">
                <ele>71.274902</ele>
                <time>2006-07-29T10:43:40Z</time>
            </trkpt>
            <trkpt lon="99.160876" lat="14.055817">
                <ele>70.313477</ele>
                <time>2006-07-29T10:43:49Z</time>
            </trkpt>
            <trkpt lon="99.160804" lat="14.056156">
                <ele>70.313477</ele>
                <time>2006-07-29T10:44:02Z</time>
            </trkpt>
            <trkpt lon="99.160700" lat="14.056437">
                <ele>69.832886</ele>
                <time>2006-07-29T10:44:14Z</time>
            </trkpt>
            <trkpt lon="99.160640" lat="14.056625">
                <ele>68.871582</ele>
                <time>2006-07-29T10:44:32Z</time>
            </trkpt>
            <trkpt lon="99.160591" lat="14.056832">
                <ele>68.871582</ele>
                <time>2006-07-29T10:44:38Z</time>
            </trkpt>
            <trkpt lon="99.159979" lat="14.057774">
                <ele>70.313477</ele>
                <time>2006-07-29T10:45:07Z</time>
            </trkpt>
            <trkpt lon="99.159977" lat="14.057864">
                <ele>70.313477</ele>
                <time>2006-07-29T10:45:09Z</time>
            </trkpt>
            <trkpt lon="99.159923" lat="14.058090">
                <ele>70.313477</ele>
                <time>2006-07-29T10:45:14Z</time>
            </trkpt>
            <trkpt lon="99.159856" lat="14.058317">
                <ele>68.871582</ele>
                <time>2006-07-29T10:45:19Z</time>
            </trkpt>
            <trkpt lon="99.159893" lat="14.058579">
                <ele>67.910278</ele>
                <time>2006-07-29T10:45:26Z</time>
            </trkpt>
            <trkpt lon="99.159794" lat="14.059038">
                <ele>66.468262</ele>
                <time>2006-07-29T10:45:39Z</time>
            </trkpt>
            <trkpt lon="99.159772" lat="14.059119">
                <ele>66.468262</ele>
                <time>2006-07-29T10:45:41Z</time>
            </trkpt>
            <trkpt lon="99.159761" lat="14.059286">
                <ele>66.468262</ele>
                <time>2006-07-29T10:45:45Z</time>
            </trkpt>
            <trkpt lon="99.159868" lat="14.059848">
                <ele>65.507080</ele>
                <time>2006-07-29T10:45:59Z</time>
            </trkpt>
            <trkpt lon="99.159763" lat="14.059904">
                <ele>65.507080</ele>
                <time>2006-07-29T10:46:04Z</time>
            </trkpt>
            <trkpt lon="99.159367" lat="14.059950">
                <ele>66.468262</ele>
                <time>2006-07-29T10:46:15Z</time>
            </trkpt>
            <trkpt lon="99.159080" lat="14.060410">
                <ele>67.429688</ele>
                <time>2006-07-29T10:46:29Z</time>
            </trkpt>
            <trkpt lon="99.158683" lat="14.060940">
                <ele>67.429688</ele>
                <time>2006-07-29T10:46:47Z</time>
            </trkpt>
            <trkpt lon="99.158477" lat="14.061430">
                <ele>68.871582</ele>
                <time>2006-07-29T10:47:03Z</time>
            </trkpt>
            <trkpt lon="99.158291" lat="14.061938">
                <ele>68.871582</ele>
                <time>2006-07-29T10:47:23Z</time>
            </trkpt>
            <trkpt lon="99.158025" lat="14.062263">
                <ele>67.429688</ele>
                <time>2006-07-29T10:47:35Z</time>
            </trkpt>
            <trkpt lon="99.156983" lat="14.063286">
                <ele>66.948975</ele>
                <time>2006-07-29T10:48:13Z</time>
            </trkpt>
            <trkpt lon="99.156238" lat="14.063778">
                <ele>68.390869</ele>
                <time>2006-07-29T10:48:34Z</time>
            </trkpt>
            <trkpt lon="99.156177" lat="14.063831">
                <ele>68.871582</ele>
                <time>2006-07-29T10:48:36Z</time>
            </trkpt>
            <trkpt lon="99.156104" lat="14.063879">
                <ele>68.871582</ele>
                <time>2006-07-29T10:48:38Z</time>
            </trkpt>
            <trkpt lon="99.155950" lat="14.064035">
                <ele>68.390869</ele>
                <time>2006-07-29T10:48:45Z</time>
            </trkpt>
            <trkpt lon="99.155543" lat="14.064089">
                <ele>69.832886</ele>
                <time>2006-07-29T10:49:02Z</time>
            </trkpt>
            <trkpt lon="99.155524" lat="14.064093">
                <ele>69.832886</ele>
                <time>2006-07-29T10:49:06Z</time>
            </trkpt>
            <trkpt lon="99.155479" lat="14.064089">
                <ele>70.313477</ele>
                <time>2006-07-29T10:49:10Z</time>
            </trkpt>
            <trkpt lon="99.155126" lat="14.064350">
                <ele>70.313477</ele>
                <time>2006-07-29T10:49:27Z</time>
            </trkpt>
            <trkpt lon="99.154719" lat="14.064513">
                <ele>70.794189</ele>
                <time>2006-07-29T10:49:42Z</time>
            </trkpt>
            <trkpt lon="99.154163" lat="14.064677">
                <ele>73.678223</ele>
                <time>2006-07-29T10:49:57Z</time>
            </trkpt>
            <trkpt lon="99.153393" lat="14.064998">
                <ele>74.158813</ele>
                <time>2006-07-29T10:50:19Z</time>
            </trkpt>
            <trkpt lon="99.153058" lat="14.065194">
                <ele>74.639526</ele>
                <time>2006-07-29T10:50:34Z</time>
            </trkpt>
            <trkpt lon="99.152613" lat="14.065588">
                <ele>77.042847</ele>
                <time>2006-07-29T10:50:54Z</time>
            </trkpt>
            <trkpt lon="99.152347" lat="14.066052">
                <ele>77.523438</ele>
                <time>2006-07-29T10:51:12Z</time>
            </trkpt>
            <trkpt lon="99.151937" lat="14.066402">
                <ele>79.446045</ele>
                <time>2006-07-29T10:51:30Z</time>
            </trkpt>
            <trkpt lon="99.151559" lat="14.066903">
                <ele>79.926636</ele>
                <time>2006-07-29T10:51:47Z</time>
            </trkpt>
            <trkpt lon="99.151208" lat="14.067584">
                <ele>80.888184</ele>
                <time>2006-07-29T10:52:05Z</time>
            </trkpt>
            <trkpt lon="99.150637" lat="14.068293">
                <ele>79.926636</ele>
                <time>2006-07-29T10:52:22Z</time>
            </trkpt>
            <trkpt lon="99.149916" lat="14.068969">
                <ele>77.042847</ele>
                <time>2006-07-29T10:52:40Z</time>
            </trkpt>
            <trkpt lon="99.149131" lat="14.069722">
                <ele>79.926636</ele>
                <time>2006-07-29T10:53:01Z</time>
            </trkpt>
            <trkpt lon="99.148494" lat="14.071067">
                <ele>73.197632</ele>
                <time>2006-07-29T10:53:35Z</time>
            </trkpt>
            <trkpt lon="99.148252" lat="14.071219">
                <ele>72.716919</ele>
                <time>2006-07-29T10:53:41Z</time>
            </trkpt>
            <trkpt lon="99.147882" lat="14.071703">
                <ele>72.236206</ele>
                <time>2006-07-29T10:53:57Z</time>
            </trkpt>
            <trkpt lon="99.147472" lat="14.072135">
                <ele>73.197632</ele>
                <time>2006-07-29T10:54:13Z</time>
            </trkpt>
            <trkpt lon="99.147247" lat="14.072564">
                <ele>70.794189</ele>
                <time>2006-07-29T10:54:26Z</time>
            </trkpt>
            <trkpt lon="99.146717" lat="14.073145">
                <ele>69.352295</ele>
                <time>2006-07-29T10:54:44Z</time>
            </trkpt>
            <trkpt lon="99.146234" lat="14.073368">
                <ele>67.429688</ele>
                <time>2006-07-29T10:54:56Z</time>
            </trkpt>
            <trkpt lon="99.145774" lat="14.073483">
                <ele>66.948975</ele>
                <time>2006-07-29T10:55:06Z</time>
            </trkpt>
            <trkpt lon="99.145682" lat="14.073543">
                <ele>66.468262</ele>
                <time>2006-07-29T10:55:08Z</time>
            </trkpt>
            <trkpt lon="99.145454" lat="14.073623">
                <ele>65.507080</ele>
                <time>2006-07-29T10:55:13Z</time>
            </trkpt>
            <trkpt lon="99.144942" lat="14.073957">
                <ele>63.103638</ele>
                <time>2006-07-29T10:55:26Z</time>
            </trkpt>
            <trkpt lon="99.144109" lat="14.074575">
                <ele>61.181030</ele>
                <time>2006-07-29T10:55:46Z</time>
            </trkpt>
            <trkpt lon="99.143674" lat="14.074774">
                <ele>60.700317</ele>
                <time>2006-07-29T10:55:57Z</time>
            </trkpt>
            <trkpt lon="99.143738" lat="14.075076">
                <ele>59.739136</ele>
                <time>2006-07-29T10:56:08Z</time>
            </trkpt>
            <trkpt lon="99.143650" lat="14.075453">
                <ele>60.219727</ele>
                <time>2006-07-29T10:56:22Z</time>
            </trkpt>
            <trkpt lon="99.143540" lat="14.076014">
                <ele>57.816528</ele>
                <time>2006-07-29T10:56:39Z</time>
            </trkpt>
            <trkpt lon="99.143139" lat="14.076519">
                <ele>58.297119</ele>
                <time>2006-07-29T10:57:01Z</time>
            </trkpt>
            <trkpt lon="99.143284" lat="14.077010">
                <ele>61.661743</ele>
                <time>2006-07-29T10:57:17Z</time>
            </trkpt>
            <trkpt lon="99.143363" lat="14.077721">
                <ele>61.661743</ele>
                <time>2006-07-29T10:57:39Z</time>
            </trkpt>
            <trkpt lon="99.143133" lat="14.078593">
                <ele>61.661743</ele>
                <time>2006-07-29T10:58:02Z</time>
            </trkpt>
            <trkpt lon="99.142804" lat="14.079359">
                <ele>55.893799</ele>
                <time>2006-07-29T10:58:39Z</time>
            </trkpt>
            <trkpt lon="99.142808" lat="14.079357">
                <ele>57.335815</ele>
                <time>2006-07-29T10:58:46Z</time>
            </trkpt>
            <trkpt lon="99.142914" lat="14.079599">
                <ele>58.297119</ele>
                <time>2006-07-29T10:59:00Z</time>
            </trkpt>
            <trkpt lon="99.142961" lat="14.079913">
                <ele>59.258423</ele>
                <time>2006-07-29T10:59:22Z</time>
            </trkpt>
            <trkpt lon="99.142939" lat="14.080191">
                <ele>56.374512</ele>
                <time>2006-07-29T10:59:41Z</time>
            </trkpt>
            <trkpt lon="99.143217" lat="14.080748">
                <ele>53.490479</ele>
                <time>2006-07-29T10:59:59Z</time>
            </trkpt>
            <trkpt lon="99.143382" lat="14.081208">
                <ele>53.971191</ele>
                <time>2006-07-29T11:00:12Z</time>
            </trkpt>
            <trkpt lon="99.143130" lat="14.081799">
                <ele>50.606567</ele>
                <time>2006-07-29T11:00:28Z</time>
            </trkpt>
            <trkpt lon="99.142746" lat="14.082487">
                <ele>50.125977</ele>
                <time>2006-07-29T11:00:50Z</time>
            </trkpt>
            <trkpt lon="99.142417" lat="14.082555">
                <ele>50.606567</ele>
                <time>2006-07-29T11:01:03Z</time>
            </trkpt>
            <trkpt lon="99.142277" lat="14.082551">
                <ele>50.606567</ele>
                <time>2006-07-29T11:01:08Z</time>
            </trkpt>
            <trkpt lon="99.142227" lat="14.082590">
                <ele>50.125977</ele>
                <time>2006-07-29T11:01:12Z</time>
            </trkpt>
            <trkpt lon="99.142125" lat="14.082676">
                <ele>49.645264</ele>
                <time>2006-07-29T11:01:22Z</time>
            </trkpt>
            <trkpt lon="99.141942" lat="14.082669">
                <ele>51.087158</ele>
                <time>2006-07-29T11:01:35Z</time>
            </trkpt>
            <trkpt lon="99.141940" lat="14.082678">
                <ele>51.567871</ele>
                <time>2006-07-29T11:01:36Z</time>
            </trkpt>
            <trkpt lon="99.141980" lat="14.082757">
                <ele>51.567871</ele>
                <time>2006-07-29T11:01:43Z</time>
            </trkpt>
            <trkpt lon="99.142047" lat="14.082813">
                <ele>52.048584</ele>
                <time>2006-07-29T11:01:47Z</time>
            </trkpt>
            <trkpt lon="99.142198" lat="14.083363">
                <ele>50.125977</ele>
                <time>2006-07-29T11:02:07Z</time>
            </trkpt>
            <trkpt lon="99.142406" lat="14.083798">
                <ele>50.125977</ele>
                <time>2006-07-29T11:02:22Z</time>
            </trkpt>
            <trkpt lon="99.142331" lat="14.084257">
                <ele>50.125977</ele>
                <time>2006-07-29T11:02:36Z</time>
            </trkpt>
            <trkpt lon="99.142107" lat="14.084594">
                <ele>51.087158</ele>
                <time>2006-07-29T11:02:50Z</time>
            </trkpt>
            <trkpt lon="99.141802" lat="14.085188">
                <ele>51.567871</ele>
                <time>2006-07-29T11:03:09Z</time>
            </trkpt>
            <trkpt lon="99.141392" lat="14.085826">
                <ele>52.529175</ele>
                <time>2006-07-29T11:03:29Z</time>
            </trkpt>
            <trkpt lon="99.140740" lat="14.086449">
                <ele>52.529175</ele>
                <time>2006-07-29T11:03:52Z</time>
            </trkpt>
            <trkpt lon="99.140036" lat="14.087104">
                <ele>52.048584</ele>
                <time>2006-07-29T11:04:09Z</time>
            </trkpt>
            <trkpt lon="99.139985" lat="14.087145">
                <ele>52.048584</ele>
                <time>2006-07-29T11:04:10Z</time>
            </trkpt>
            <trkpt lon="99.139231" lat="14.087614">
                <ele>52.529175</ele>
                <time>2006-07-29T11:04:26Z</time>
            </trkpt>
            <trkpt lon="99.138492" lat="14.087868">
                <ele>55.413086</ele>
                <time>2006-07-29T11:04:44Z</time>
            </trkpt>
            <trkpt lon="99.138133" lat="14.087952">
                <ele>54.932373</ele>
                <time>2006-07-29T11:04:53Z</time>
            </trkpt>
            <trkpt lon="99.138109" lat="14.088103">
                <ele>53.971191</ele>
                <time>2006-07-29T11:04:57Z</time>
            </trkpt>
            <trkpt lon="99.138307" lat="14.088613">
                <ele>52.529175</ele>
                <time>2006-07-29T11:05:09Z</time>
            </trkpt>
            <trkpt lon="99.138548" lat="14.089260">
                <ele>50.606567</ele>
                <time>2006-07-29T11:05:25Z</time>
            </trkpt>
            <trkpt lon="99.138473" lat="14.090020">
                <ele>51.087158</ele>
                <time>2006-07-29T11:05:38Z</time>
            </trkpt>
            <trkpt lon="99.138401" lat="14.090750">
                <ele>53.490479</ele>
                <time>2006-07-29T11:05:55Z</time>
            </trkpt>
            <trkpt lon="99.138385" lat="14.090919">
                <ele>52.529175</ele>
                <time>2006-07-29T11:06:08Z</time>
            </trkpt>
            <trkpt lon="99.138344" lat="14.091256">
                <ele>50.606567</ele>
                <time>2006-07-29T11:06:21Z</time>
            </trkpt>
            <trkpt lon="99.138275" lat="14.091974">
                <ele>47.241821</ele>
                <time>2006-07-29T11:06:34Z</time>
            </trkpt>
            <trkpt lon="99.138222" lat="14.092419">
                <ele>48.683960</ele>
                <time>2006-07-29T11:06:44Z</time>
            </trkpt>
            <trkpt lon="99.138359" lat="14.093239">
                <ele>45.319214</ele>
                <time>2006-07-29T11:07:01Z</time>
            </trkpt>
            <trkpt lon="99.138573" lat="14.093948">
                <ele>45.799927</ele>
                <time>2006-07-29T11:07:16Z</time>
            </trkpt>
            <trkpt lon="99.138597" lat="14.094410">
                <ele>45.319214</ele>
                <time>2006-07-29T11:07:28Z</time>
            </trkpt>
            <trkpt lon="99.138470" lat="14.095146">
                <ele>49.645264</ele>
                <time>2006-07-29T11:07:47Z</time>
            </trkpt>
            <trkpt lon="99.138284" lat="14.095845">
                <ele>52.048584</ele>
                <time>2006-07-29T11:08:07Z</time>
            </trkpt>
            <trkpt lon="99.138186" lat="14.096585">
                <ele>52.529175</ele>
                <time>2006-07-29T11:08:30Z</time>
            </trkpt>
            <trkpt lon="99.138218" lat="14.096761">
                <ele>53.009766</ele>
                <time>2006-07-29T11:08:44Z</time>
            </trkpt>
            <trkpt lon="99.138274" lat="14.097001">
                <ele>51.087158</ele>
                <time>2006-07-29T11:09:02Z</time>
            </trkpt>
            <trkpt lon="99.138322" lat="14.097815">
                <ele>52.529175</ele>
                <time>2006-07-29T11:09:20Z</time>
            </trkpt>
            <trkpt lon="99.138348" lat="14.097946">
                <ele>52.529175</ele>
                <time>2006-07-29T11:09:23Z</time>
            </trkpt>
            <trkpt lon="99.138491" lat="14.098718">
                <ele>51.087158</ele>
                <time>2006-07-29T11:09:39Z</time>
            </trkpt>
            <trkpt lon="99.138535" lat="14.098986">
                <ele>50.606567</ele>
                <time>2006-07-29T11:09:46Z</time>
            </trkpt>
            <trkpt lon="99.139028" lat="14.099771">
                <ele>53.009766</ele>
                <time>2006-07-29T11:10:05Z</time>
            </trkpt>
            <trkpt lon="99.139852" lat="14.100742">
                <ele>54.451782</ele>
                <time>2006-07-29T11:10:28Z</time>
            </trkpt>
            <trkpt lon="99.140658" lat="14.101253">
                <ele>53.971191</ele>
                <time>2006-07-29T11:10:44Z</time>
            </trkpt>
            <trkpt lon="99.141591" lat="14.102187">
                <ele>53.971191</ele>
                <time>2006-07-29T11:11:05Z</time>
            </trkpt>
            <trkpt lon="99.142203" lat="14.102861">
                <ele>54.451782</ele>
                <time>2006-07-29T11:11:20Z</time>
            </trkpt>
            <trkpt lon="99.142449" lat="14.103790">
                <ele>53.490479</ele>
                <time>2006-07-29T11:11:37Z</time>
            </trkpt>
            <trkpt lon="99.142504" lat="14.103881">
                <ele>53.971191</ele>
                <time>2006-07-29T11:11:39Z</time>
            </trkpt>
            <trkpt lon="99.142659" lat="14.104020">
                <ele>53.971191</ele>
                <time>2006-07-29T11:11:43Z</time>
            </trkpt>
            <trkpt lon="99.142748" lat="14.104069">
                <ele>53.971191</ele>
                <time>2006-07-29T11:11:45Z</time>
            </trkpt>
            <trkpt lon="99.142947" lat="14.104120">
                <ele>53.009766</ele>
                <time>2006-07-29T11:11:49Z</time>
            </trkpt>
            <trkpt lon="99.143908" lat="14.104318">
                <ele>54.932373</ele>
                <time>2006-07-29T11:12:08Z</time>
            </trkpt>
            <trkpt lon="99.144044" lat="14.104401">
                <ele>54.451782</ele>
                <time>2006-07-29T11:12:11Z</time>
            </trkpt>
            <trkpt lon="99.144323" lat="14.104741">
                <ele>54.451782</ele>
                <time>2006-07-29T11:12:19Z</time>
            </trkpt>
            <trkpt lon="99.144389" lat="14.104952">
                <ele>54.451782</ele>
                <time>2006-07-29T11:12:23Z</time>
            </trkpt>
            <trkpt lon="99.144589" lat="14.106366">
                <ele>51.087158</ele>
                <time>2006-07-29T11:12:49Z</time>
            </trkpt>
            <trkpt lon="99.144861" lat="14.107568">
                <ele>52.529175</ele>
                <time>2006-07-29T11:13:11Z</time>
            </trkpt>
            <trkpt lon="99.145495" lat="14.108776">
                <ele>55.413086</ele>
                <time>2006-07-29T11:13:34Z</time>
            </trkpt>
            <trkpt lon="99.145524" lat="14.108827">
                <ele>55.413086</ele>
                <time>2006-07-29T11:13:35Z</time>
            </trkpt>
            <trkpt lon="99.145819" lat="14.110012">
                <ele>53.490479</ele>
                <time>2006-07-29T11:13:55Z</time>
            </trkpt>
            <trkpt lon="99.146032" lat="14.111164">
                <ele>49.164551</ele>
                <time>2006-07-29T11:14:13Z</time>
            </trkpt>
            <trkpt lon="99.146304" lat="14.112577">
                <ele>49.164551</ele>
                <time>2006-07-29T11:14:35Z</time>
            </trkpt>
            <trkpt lon="99.146511" lat="14.113777">
                <ele>48.203369</ele>
                <time>2006-07-29T11:14:55Z</time>
            </trkpt>
            <trkpt lon="99.146738" lat="14.114762">
                <ele>48.683960</ele>
                <time>2006-07-29T11:15:14Z</time>
            </trkpt>
            <trkpt lon="99.147054" lat="14.115515">
                <ele>51.087158</ele>
                <time>2006-07-29T11:15:34Z</time>
            </trkpt>
            <trkpt lon="99.147292" lat="14.115500">
                <ele>53.009766</ele>
                <time>2006-07-29T11:15:41Z</time>
            </trkpt>
            <trkpt lon="99.147929" lat="14.114829">
                <ele>50.606567</ele>
                <time>2006-07-29T11:16:01Z</time>
            </trkpt>
            <trkpt lon="99.148673" lat="14.114038">
                <ele>51.087158</ele>
                <time>2006-07-29T11:16:23Z</time>
            </trkpt>
            <trkpt lon="99.149623" lat="14.113704">
                <ele>55.413086</ele>
                <time>2006-07-29T11:16:42Z</time>
            </trkpt>
            <trkpt lon="99.150918" lat="14.113356">
                <ele>56.374512</ele>
                <time>2006-07-29T11:17:05Z</time>
            </trkpt>
            <trkpt lon="99.151936" lat="14.113068">
                <ele>56.855103</ele>
                <time>2006-07-29T11:17:22Z</time>
            </trkpt>
            <trkpt lon="99.152103" lat="14.113010">
                <ele>56.855103</ele>
                <time>2006-07-29T11:17:25Z</time>
            </trkpt>
            <trkpt lon="99.152710" lat="14.112460">
                <ele>57.335815</ele>
                <time>2006-07-29T11:17:39Z</time>
            </trkpt>
            <trkpt lon="99.153297" lat="14.111685">
                <ele>57.335815</ele>
                <time>2006-07-29T11:17:56Z</time>
            </trkpt>
            <trkpt lon="99.153445" lat="14.111438">
                <ele>56.855103</ele>
                <time>2006-07-29T11:18:02Z</time>
            </trkpt>
            <trkpt lon="99.153338" lat="14.111140">
                <ele>59.739136</ele>
                <time>2006-07-29T11:18:10Z</time>
            </trkpt>
            <trkpt lon="99.152411" lat="14.110170">
                <ele>60.700317</ele>
                <time>2006-07-29T11:18:36Z</time>
            </trkpt>
            <trkpt lon="99.152164" lat="14.109943">
                <ele>63.584351</ele>
                <time>2006-07-29T11:18:43Z</time>
            </trkpt>
            <trkpt lon="99.151438" lat="14.109106">
                <ele>60.219727</ele>
                <time>2006-07-29T11:19:05Z</time>
            </trkpt>
            <trkpt lon="99.151313" lat="14.109001">
                <ele>59.739136</ele>
                <time>2006-07-29T11:19:08Z</time>
            </trkpt>
            <trkpt lon="99.150861" lat="14.108507">
                <ele>60.219727</ele>
                <time>2006-07-29T11:19:20Z</time>
            </trkpt>
            <trkpt lon="99.150680" lat="14.108498">
                <ele>58.777710</ele>
                <time>2006-07-29T11:19:24Z</time>
            </trkpt>
            <trkpt lon="99.149988" lat="14.109112">
                <ele>60.219727</ele>
                <time>2006-07-29T11:19:42Z</time>
            </trkpt>
            <trkpt lon="99.149910" lat="14.109103">
                <ele>60.700317</ele>
                <time>2006-07-29T11:19:44Z</time>
            </trkpt>
            <trkpt lon="99.149567" lat="14.108794">
                <ele>62.622925</ele>
                <time>2006-07-29T11:19:58Z</time>
            </trkpt>
            <trkpt lon="99.149344" lat="14.108710">
                <ele>62.142334</ele>
                <time>2006-07-29T11:20:04Z</time>
            </trkpt>
            <trkpt lon="99.149283" lat="14.108662">
                <ele>62.142334</ele>
                <time>2006-07-29T11:20:06Z</time>
            </trkpt>
            <trkpt lon="99.149087" lat="14.108358">
                <ele>59.739136</ele>
                <time>2006-07-29T11:20:15Z</time>
            </trkpt>
            <trkpt lon="99.149016" lat="14.108343">
                <ele>57.335815</ele>
                <time>2006-07-29T11:20:19Z</time>
            </trkpt>
            <trkpt lon="99.148795" lat="14.108210">
                <ele>54.451782</ele>
                <time>2006-07-29T11:20:32Z</time>
            </trkpt>
            <trkpt lon="99.148668" lat="14.107449">
                <ele>54.932373</ele>
                <time>2006-07-29T11:20:52Z</time>
            </trkpt>
            <trkpt lon="99.148863" lat="14.107345">
                <ele>52.529175</ele>
                <time>2006-07-29T11:21:04Z</time>
            </trkpt>
        </trkseg>
    </trk>
</gpx>